<?xml version="1.0" encoding="UTF-8" standalone="no" ?>
<gpx xmlns="http://www.topografix.com/GPX/1/1" xmlns:xsi="http://www.w3.org/2001/XMLSchema-instance" xsi:schemaLocation="http://www.topografix.com/GPX/1/1 http://www.topografix.com/GPX/1/1/gpx.xsd" version="1.1" creator="VisuGPX - https://www.visugpx.com">
  <metadata>
    <name>Boucle d'Etauliers</name>
    <desc><![CDATA[Chemins balisés CCE Estuaire/Département
Balisage vert ]]></desc>
  </metadata>
  <trk>
    <name><![CDATA[Boucle Etauliers]]></name>
    <extensions>
      <line xmlns="http://www.topografix.com/GPX/gpx_style/0/2">
        <color>246605</color>
        <width>7</width>
      </line>
    </extensions>
    <trkseg>
      <trkpt lat="45.22503" lon="-0.57341">
        <ele>55.11</ele>
        <time>2021-05-24T10:21:17.000Z</time>
      </trkpt>
      <trkpt lat="45.22493" lon="-0.57337">
        <ele>53.23</ele>
        <time>2021-05-24T10:21:30.000Z</time>
      </trkpt>
      <trkpt lat="45.22485" lon="-0.57334">
        <ele>53.48</ele>
        <time>2021-05-24T10:21:33.000Z</time>
      </trkpt>
      <trkpt lat="45.22475" lon="-0.57331">
        <ele>53.7</ele>
        <time>2021-05-24T10:21:36.000Z</time>
      </trkpt>
      <trkpt lat="45.22466" lon="-0.57329">
        <ele>54.7</ele>
        <time>2021-05-24T10:21:39.000Z</time>
      </trkpt>
      <trkpt lat="45.22455" lon="-0.5733">
        <ele>55.48</ele>
        <time>2021-05-24T10:21:43.000Z</time>
      </trkpt>
      <trkpt lat="45.22445" lon="-0.57326">
        <ele>55.08</ele>
        <time>2021-05-24T10:21:47.000Z</time>
      </trkpt>
      <trkpt lat="45.22436" lon="-0.57321">
        <ele>54.37</ele>
        <time>2021-05-24T10:21:51.000Z</time>
      </trkpt>
      <trkpt lat="45.22427" lon="-0.57319">
        <ele>53.85</ele>
        <time>2021-05-24T10:21:55.000Z</time>
      </trkpt>
      <trkpt lat="45.22419" lon="-0.57312">
        <ele>52.4</ele>
        <time>2021-05-24T10:22:10.000Z</time>
      </trkpt>
      <trkpt lat="45.22408" lon="-0.57314">
        <ele>52.54</ele>
        <time>2021-05-24T10:22:22.000Z</time>
      </trkpt>
      <trkpt lat="45.22403" lon="-0.57302">
        <ele>52.69</ele>
        <time>2021-05-24T10:22:27.000Z</time>
      </trkpt>
      <trkpt lat="45.22398" lon="-0.57291">
        <ele>54.44</ele>
        <time>2021-05-24T10:23:09.000Z</time>
      </trkpt>
      <trkpt lat="45.22396" lon="-0.57278">
        <ele>54.24</ele>
        <time>2021-05-24T10:23:38.000Z</time>
      </trkpt>
      <trkpt lat="45.22397" lon="-0.57261">
        <ele>52</ele>
        <time>2021-05-24T10:23:42.000Z</time>
      </trkpt>
      <trkpt lat="45.22395" lon="-0.57247">
        <ele>50.42</ele>
        <time>2021-05-24T10:23:46.000Z</time>
      </trkpt>
      <trkpt lat="45.22397" lon="-0.57233">
        <ele>50.12</ele>
        <time>2021-05-24T10:23:50.000Z</time>
      </trkpt>
      <trkpt lat="45.22396" lon="-0.57218">
        <ele>50.33</ele>
        <time>2021-05-24T10:23:55.000Z</time>
      </trkpt>
      <trkpt lat="45.22395" lon="-0.57202">
        <ele>52.94</ele>
        <time>2021-05-24T10:24:44.000Z</time>
      </trkpt>
      <trkpt lat="45.22399" lon="-0.57188">
        <ele>52.94</ele>
        <time>2021-05-24T10:24:48.000Z</time>
      </trkpt>
      <trkpt lat="45.22401" lon="-0.57174">
        <ele>52.83</ele>
        <time>2021-05-24T10:24:52.000Z</time>
      </trkpt>
      <trkpt lat="45.22403" lon="-0.57158">
        <ele>53.01</ele>
        <time>2021-05-24T10:24:56.000Z</time>
      </trkpt>
      <trkpt lat="45.22403" lon="-0.57145">
        <ele>53.06</ele>
        <time>2021-05-24T10:24:59.000Z</time>
      </trkpt>
      <trkpt lat="45.22404" lon="-0.5713">
        <ele>52.83</ele>
        <time>2021-05-24T10:25:02.000Z</time>
      </trkpt>
      <trkpt lat="45.22406" lon="-0.57117">
        <ele>54.04</ele>
        <time>2021-05-24T10:25:05.000Z</time>
      </trkpt>
      <trkpt lat="45.22407" lon="-0.571">
        <ele>54.02</ele>
        <time>2021-05-24T10:25:08.000Z</time>
      </trkpt>
      <trkpt lat="45.22407" lon="-0.57083">
        <ele>54.58</ele>
        <time>2021-05-24T10:25:11.000Z</time>
      </trkpt>
      <trkpt lat="45.22408" lon="-0.57068">
        <ele>54.7</ele>
        <time>2021-05-24T10:25:14.000Z</time>
      </trkpt>
      <trkpt lat="45.22408" lon="-0.57054">
        <ele>55.86</ele>
        <time>2021-05-24T10:25:17.000Z</time>
      </trkpt>
      <trkpt lat="45.22408" lon="-0.57039">
        <ele>56.43</ele>
        <time>2021-05-24T10:25:20.000Z</time>
      </trkpt>
      <trkpt lat="45.2241" lon="-0.57025">
        <ele>52.41</ele>
        <time>2021-05-24T10:25:35.000Z</time>
      </trkpt>
      <trkpt lat="45.2241" lon="-0.57009">
        <ele>52.42</ele>
        <time>2021-05-24T10:25:39.000Z</time>
      </trkpt>
      <trkpt lat="45.22413" lon="-0.56996">
        <ele>55.73</ele>
        <time>2021-05-24T10:26:22.000Z</time>
      </trkpt>
      <trkpt lat="45.22419" lon="-0.56986">
        <ele>54.02</ele>
        <time>2021-05-24T10:26:44.000Z</time>
      </trkpt>
      <trkpt lat="45.22428" lon="-0.56976">
        <ele>54.07</ele>
        <time>2021-05-24T10:26:51.000Z</time>
      </trkpt>
      <trkpt lat="45.22436" lon="-0.56966">
        <ele>54</ele>
        <time>2021-05-24T10:26:55.000Z</time>
      </trkpt>
      <trkpt lat="45.22445" lon="-0.56964">
        <ele>57.54</ele>
        <time>2021-05-24T10:26:59.000Z</time>
      </trkpt>
      <trkpt lat="45.22454" lon="-0.56961">
        <ele>55.83</ele>
        <time>2021-05-24T10:27:03.000Z</time>
      </trkpt>
      <trkpt lat="45.22466" lon="-0.56961">
        <ele>56.21</ele>
        <time>2021-05-24T10:27:07.000Z</time>
      </trkpt>
      <trkpt lat="45.22475" lon="-0.56963">
        <ele>56.06</ele>
        <time>2021-05-24T10:27:27.000Z</time>
      </trkpt>
      <trkpt lat="45.22483" lon="-0.56971">
        <ele>56.69</ele>
        <time>2021-05-24T10:27:32.000Z</time>
      </trkpt>
      <trkpt lat="45.22494" lon="-0.56979">
        <ele>56.68</ele>
        <time>2021-05-24T10:27:36.000Z</time>
      </trkpt>
      <trkpt lat="45.22503" lon="-0.56984">
        <ele>57.91</ele>
        <time>2021-05-24T10:27:40.000Z</time>
      </trkpt>
      <trkpt lat="45.22514" lon="-0.56989">
        <ele>57.54</ele>
        <time>2021-05-24T10:27:46.000Z</time>
      </trkpt>
      <trkpt lat="45.22521" lon="-0.56996">
        <ele>56.57</ele>
        <time>2021-05-24T10:28:04.000Z</time>
      </trkpt>
      <trkpt lat="45.2253" lon="-0.57003">
        <ele>55.49</ele>
        <time>2021-05-24T10:28:15.000Z</time>
      </trkpt>
      <trkpt lat="45.22538" lon="-0.57011">
        <ele>57.03</ele>
        <time>2021-05-24T10:28:18.000Z</time>
      </trkpt>
      <trkpt lat="45.22548" lon="-0.57013">
        <ele>58.13</ele>
        <time>2021-05-24T10:28:21.000Z</time>
      </trkpt>
      <trkpt lat="45.22559" lon="-0.5701">
        <ele>58.7</ele>
        <time>2021-05-24T10:28:24.000Z</time>
      </trkpt>
      <trkpt lat="45.22569" lon="-0.57004">
        <ele>60.14</ele>
        <time>2021-05-24T10:28:27.000Z</time>
      </trkpt>
      <trkpt lat="45.22579" lon="-0.56999">
        <ele>60.26</ele>
        <time>2021-05-24T10:28:31.000Z</time>
      </trkpt>
      <trkpt lat="45.22591" lon="-0.56998">
        <ele>61.56</ele>
        <time>2021-05-24T10:28:36.000Z</time>
      </trkpt>
      <trkpt lat="45.22602" lon="-0.56998">
        <ele>62.47</ele>
        <time>2021-05-24T10:28:40.000Z</time>
      </trkpt>
      <trkpt lat="45.22611" lon="-0.57002">
        <ele>60.84</ele>
        <time>2021-05-24T10:28:44.000Z</time>
      </trkpt>
      <trkpt lat="45.22621" lon="-0.56993">
        <ele>59.67</ele>
        <time>2021-05-24T10:28:48.000Z</time>
      </trkpt>
      <trkpt lat="45.2263" lon="-0.56987">
        <ele>59.78</ele>
        <time>2021-05-24T10:28:51.000Z</time>
      </trkpt>
      <trkpt lat="45.22638" lon="-0.56982">
        <ele>59.58</ele>
        <time>2021-05-24T10:28:54.000Z</time>
      </trkpt>
      <trkpt lat="45.22647" lon="-0.56974">
        <ele>60.14</ele>
        <time>2021-05-24T10:28:57.000Z</time>
      </trkpt>
      <trkpt lat="45.22654" lon="-0.56965">
        <ele>59.99</ele>
        <time>2021-05-24T10:29:00.000Z</time>
      </trkpt>
      <trkpt lat="45.22663" lon="-0.56959">
        <ele>60.36</ele>
        <time>2021-05-24T10:29:03.000Z</time>
      </trkpt>
      <trkpt lat="45.22672" lon="-0.56952">
        <ele>60.21</ele>
        <time>2021-05-24T10:29:07.000Z</time>
      </trkpt>
      <trkpt lat="45.22679" lon="-0.56942">
        <ele>59.46</ele>
        <time>2021-05-24T10:29:13.000Z</time>
      </trkpt>
      <trkpt lat="45.22689" lon="-0.56937">
        <ele>59.24</ele>
        <time>2021-05-24T10:29:18.000Z</time>
      </trkpt>
      <trkpt lat="45.22696" lon="-0.56926">
        <ele>58.74</ele>
        <time>2021-05-24T10:29:25.000Z</time>
      </trkpt>
      <trkpt lat="45.22695" lon="-0.56913">
        <ele>58.08</ele>
        <time>2021-05-24T10:29:29.000Z</time>
      </trkpt>
      <trkpt lat="45.22693" lon="-0.56901">
        <ele>58.11</ele>
        <time>2021-05-24T10:29:32.000Z</time>
      </trkpt>
      <trkpt lat="45.22689" lon="-0.56885">
        <ele>57.82</ele>
        <time>2021-05-24T10:29:36.000Z</time>
      </trkpt>
      <trkpt lat="45.22686" lon="-0.56873">
        <ele>58.12</ele>
        <time>2021-05-24T10:29:39.000Z</time>
      </trkpt>
      <trkpt lat="45.22683" lon="-0.5686">
        <ele>58.04</ele>
        <time>2021-05-24T10:29:42.000Z</time>
      </trkpt>
      <trkpt lat="45.22678" lon="-0.56842">
        <ele>57.87</ele>
        <time>2021-05-24T10:29:46.000Z</time>
      </trkpt>
      <trkpt lat="45.22673" lon="-0.56822">
        <ele>58.44</ele>
        <time>2021-05-24T10:29:50.000Z</time>
      </trkpt>
      <trkpt lat="45.22671" lon="-0.56802">
        <ele>59.24</ele>
        <time>2021-05-24T10:29:54.000Z</time>
      </trkpt>
      <trkpt lat="45.22669" lon="-0.56787">
        <ele>59.19</ele>
        <time>2021-05-24T10:29:57.000Z</time>
      </trkpt>
      <trkpt lat="45.2267" lon="-0.56773">
        <ele>59.82</ele>
        <time>2021-05-24T10:30:00.000Z</time>
      </trkpt>
      <trkpt lat="45.2267" lon="-0.56759">
        <ele>60.82</ele>
        <time>2021-05-24T10:30:35.000Z</time>
      </trkpt>
      <trkpt lat="45.2267" lon="-0.56742">
        <ele>59.39</ele>
        <time>2021-05-24T10:30:39.000Z</time>
      </trkpt>
      <trkpt lat="45.2267" lon="-0.56727">
        <ele>59.06</ele>
        <time>2021-05-24T10:30:42.000Z</time>
      </trkpt>
      <trkpt lat="45.2267" lon="-0.56713">
        <ele>59.41</ele>
        <time>2021-05-24T10:30:45.000Z</time>
      </trkpt>
      <trkpt lat="45.22668" lon="-0.567">
        <ele>59.83</ele>
        <time>2021-05-24T10:30:48.000Z</time>
      </trkpt>
      <trkpt lat="45.22667" lon="-0.56687">
        <ele>59.38</ele>
        <time>2021-05-24T10:30:52.000Z</time>
      </trkpt>
      <trkpt lat="45.22666" lon="-0.56673">
        <ele>60.11</ele>
        <time>2021-05-24T10:31:13.000Z</time>
      </trkpt>
      <trkpt lat="45.22664" lon="-0.56661">
        <ele>59.97</ele>
        <time>2021-05-24T10:31:17.000Z</time>
      </trkpt>
      <trkpt lat="45.22659" lon="-0.56646">
        <ele>59.76</ele>
        <time>2021-05-24T10:31:21.000Z</time>
      </trkpt>
      <trkpt lat="45.22656" lon="-0.56633">
        <ele>60.24</ele>
        <time>2021-05-24T10:31:24.000Z</time>
      </trkpt>
      <trkpt lat="45.22652" lon="-0.56622">
        <ele>59.92</ele>
        <time>2021-05-24T10:31:27.000Z</time>
      </trkpt>
      <trkpt lat="45.22648" lon="-0.5661">
        <ele>59.51</ele>
        <time>2021-05-24T10:31:30.000Z</time>
      </trkpt>
      <trkpt lat="45.22644" lon="-0.56598">
        <ele>59.02</ele>
        <time>2021-05-24T10:31:33.000Z</time>
      </trkpt>
      <trkpt lat="45.2264" lon="-0.56585">
        <ele>58.79</ele>
        <time>2021-05-24T10:31:36.000Z</time>
      </trkpt>
      <trkpt lat="45.22634" lon="-0.56573">
        <ele>58.18</ele>
        <time>2021-05-24T10:31:39.000Z</time>
      </trkpt>
      <trkpt lat="45.2263" lon="-0.5656">
        <ele>58.1</ele>
        <time>2021-05-24T10:31:42.000Z</time>
      </trkpt>
      <trkpt lat="45.22626" lon="-0.56545">
        <ele>59.17</ele>
        <time>2021-05-24T10:31:45.000Z</time>
      </trkpt>
      <trkpt lat="45.22623" lon="-0.56532">
        <ele>58.95</ele>
        <time>2021-05-24T10:31:48.000Z</time>
      </trkpt>
      <trkpt lat="45.22619" lon="-0.5652">
        <ele>58.03</ele>
        <time>2021-05-24T10:31:51.000Z</time>
      </trkpt>
      <trkpt lat="45.22615" lon="-0.56506">
        <ele>58.71</ele>
        <time>2021-05-24T10:31:54.000Z</time>
      </trkpt>
      <trkpt lat="45.22611" lon="-0.56492">
        <ele>58.39</ele>
        <time>2021-05-24T10:31:57.000Z</time>
      </trkpt>
      <trkpt lat="45.22607" lon="-0.56476">
        <ele>57.54</ele>
        <time>2021-05-24T10:32:00.000Z</time>
      </trkpt>
      <trkpt lat="45.22605" lon="-0.56459">
        <ele>57.4</ele>
        <time>2021-05-24T10:32:03.000Z</time>
      </trkpt>
      <trkpt lat="45.22602" lon="-0.56445">
        <ele>58.03</ele>
        <time>2021-05-24T10:32:06.000Z</time>
      </trkpt>
      <trkpt lat="45.226" lon="-0.56431">
        <ele>59.07</ele>
        <time>2021-05-24T10:32:09.000Z</time>
      </trkpt>
      <trkpt lat="45.22598" lon="-0.56418">
        <ele>58.32</ele>
        <time>2021-05-24T10:32:12.000Z</time>
      </trkpt>
      <trkpt lat="45.22595" lon="-0.56405">
        <ele>57.69</ele>
        <time>2021-05-24T10:32:15.000Z</time>
      </trkpt>
      <trkpt lat="45.22594" lon="-0.56391">
        <ele>57.07</ele>
        <time>2021-05-24T10:32:18.000Z</time>
      </trkpt>
      <trkpt lat="45.22594" lon="-0.56376">
        <ele>58.29</ele>
        <time>2021-05-24T10:32:21.000Z</time>
      </trkpt>
      <trkpt lat="45.22593" lon="-0.5636">
        <ele>58.7</ele>
        <time>2021-05-24T10:32:24.000Z</time>
      </trkpt>
      <trkpt lat="45.22592" lon="-0.56345">
        <ele>57.62</ele>
        <time>2021-05-24T10:32:27.000Z</time>
      </trkpt>
      <trkpt lat="45.22592" lon="-0.5633">
        <ele>58.81</ele>
        <time>2021-05-24T10:32:30.000Z</time>
      </trkpt>
      <trkpt lat="45.22592" lon="-0.56316">
        <ele>58.75</ele>
        <time>2021-05-24T10:32:33.000Z</time>
      </trkpt>
      <trkpt lat="45.22591" lon="-0.56302">
        <ele>59.67</ele>
        <time>2021-05-24T10:32:36.000Z</time>
      </trkpt>
      <trkpt lat="45.22592" lon="-0.56289">
        <ele>58.48</ele>
        <time>2021-05-24T10:32:42.000Z</time>
      </trkpt>
      <trkpt lat="45.22593" lon="-0.56273">
        <ele>56.95</ele>
        <time>2021-05-24T10:32:47.000Z</time>
      </trkpt>
      <trkpt lat="45.22593" lon="-0.56258">
        <ele>58.28</ele>
        <time>2021-05-24T10:32:52.000Z</time>
      </trkpt>
      <trkpt lat="45.22596" lon="-0.56245">
        <ele>57.48</ele>
        <time>2021-05-24T10:32:56.000Z</time>
      </trkpt>
      <trkpt lat="45.22597" lon="-0.56229">
        <ele>57.62</ele>
        <time>2021-05-24T10:33:00.000Z</time>
      </trkpt>
      <trkpt lat="45.22599" lon="-0.56215">
        <ele>57.54</ele>
        <time>2021-05-24T10:33:04.000Z</time>
      </trkpt>
      <trkpt lat="45.22602" lon="-0.56201">
        <ele>54.84</ele>
        <time>2021-05-24T10:33:10.000Z</time>
      </trkpt>
      <trkpt lat="45.22603" lon="-0.56186">
        <ele>54.84</ele>
        <time>2021-05-24T10:33:15.000Z</time>
      </trkpt>
      <trkpt lat="45.22605" lon="-0.56171">
        <ele>53.64</ele>
        <time>2021-05-24T10:33:20.000Z</time>
      </trkpt>
      <trkpt lat="45.22606" lon="-0.56155">
        <ele>55.08</ele>
        <time>2021-05-24T10:33:24.000Z</time>
      </trkpt>
      <trkpt lat="45.22606" lon="-0.5614">
        <ele>55.5</ele>
        <time>2021-05-24T10:33:28.000Z</time>
      </trkpt>
      <trkpt lat="45.22607" lon="-0.56126">
        <ele>57.95</ele>
        <time>2021-05-24T10:33:49.000Z</time>
      </trkpt>
      <trkpt lat="45.22606" lon="-0.56113">
        <ele>57.83</ele>
        <time>2021-05-24T10:33:55.000Z</time>
      </trkpt>
      <trkpt lat="45.22605" lon="-0.56098">
        <ele>57.43</ele>
        <time>2021-05-24T10:34:00.000Z</time>
      </trkpt>
      <trkpt lat="45.22603" lon="-0.56081">
        <ele>59.2</ele>
        <time>2021-05-24T10:34:04.000Z</time>
      </trkpt>
      <trkpt lat="45.22603" lon="-0.56066">
        <ele>61.21</ele>
        <time>2021-05-24T10:34:07.000Z</time>
      </trkpt>
      <trkpt lat="45.22603" lon="-0.56053">
        <ele>61.79</ele>
        <time>2021-05-24T10:34:10.000Z</time>
      </trkpt>
      <trkpt lat="45.22602" lon="-0.5604">
        <ele>61.27</ele>
        <time>2021-05-24T10:34:13.000Z</time>
      </trkpt>
      <trkpt lat="45.22602" lon="-0.56023">
        <ele>60.79</ele>
        <time>2021-05-24T10:34:17.000Z</time>
      </trkpt>
      <trkpt lat="45.22602" lon="-0.5601">
        <ele>61.82</ele>
        <time>2021-05-24T10:34:20.000Z</time>
      </trkpt>
      <trkpt lat="45.226" lon="-0.55997">
        <ele>62.57</ele>
        <time>2021-05-24T10:34:23.000Z</time>
      </trkpt>
      <trkpt lat="45.22599" lon="-0.55983">
        <ele>64.02</ele>
        <time>2021-05-24T10:34:26.000Z</time>
      </trkpt>
      <trkpt lat="45.22598" lon="-0.55969">
        <ele>64.97</ele>
        <time>2021-05-24T10:34:30.000Z</time>
      </trkpt>
      <trkpt lat="45.22596" lon="-0.55955">
        <ele>63.3</ele>
        <time>2021-05-24T10:34:58.000Z</time>
      </trkpt>
      <trkpt lat="45.22596" lon="-0.5594">
        <ele>62.95</ele>
        <time>2021-05-24T10:35:02.000Z</time>
      </trkpt>
      <trkpt lat="45.22595" lon="-0.55926">
        <ele>62.59</ele>
        <time>2021-05-24T10:35:05.000Z</time>
      </trkpt>
      <trkpt lat="45.22594" lon="-0.55912">
        <ele>60.55</ele>
        <time>2021-05-24T10:35:08.000Z</time>
      </trkpt>
      <trkpt lat="45.22593" lon="-0.55896">
        <ele>59.65</ele>
        <time>2021-05-24T10:35:11.000Z</time>
      </trkpt>
      <trkpt lat="45.22592" lon="-0.55882">
        <ele>58.32</ele>
        <time>2021-05-24T10:35:14.000Z</time>
      </trkpt>
      <trkpt lat="45.22591" lon="-0.55867">
        <ele>59</ele>
        <time>2021-05-24T10:35:17.000Z</time>
      </trkpt>
      <trkpt lat="45.22588" lon="-0.55851">
        <ele>60.17</ele>
        <time>2021-05-24T10:35:21.000Z</time>
      </trkpt>
      <trkpt lat="45.22586" lon="-0.55837">
        <ele>61.61</ele>
        <time>2021-05-24T10:35:25.000Z</time>
      </trkpt>
      <trkpt lat="45.22585" lon="-0.55824">
        <ele>62.34</ele>
        <time>2021-05-24T10:35:30.000Z</time>
      </trkpt>
      <trkpt lat="45.22584" lon="-0.5581">
        <ele>64.66</ele>
        <time>2021-05-24T10:35:37.000Z</time>
      </trkpt>
      <trkpt lat="45.22582" lon="-0.55798">
        <ele>66.21</ele>
        <time>2021-05-24T10:35:43.000Z</time>
      </trkpt>
      <trkpt lat="45.2258" lon="-0.55784">
        <ele>64.12</ele>
        <time>2021-05-24T10:35:49.000Z</time>
      </trkpt>
      <trkpt lat="45.2258" lon="-0.55769">
        <ele>65.21</ele>
        <time>2021-05-24T10:35:54.000Z</time>
      </trkpt>
      <trkpt lat="45.22577" lon="-0.55756">
        <ele>63.09</ele>
        <time>2021-05-24T10:35:59.000Z</time>
      </trkpt>
      <trkpt lat="45.22575" lon="-0.55743">
        <ele>61.98</ele>
        <time>2021-05-24T10:36:03.000Z</time>
      </trkpt>
      <trkpt lat="45.22572" lon="-0.55728">
        <ele>63.13</ele>
        <time>2021-05-24T10:36:07.000Z</time>
      </trkpt>
      <trkpt lat="45.22556" lon="-0.55724">
        <ele>56.68</ele>
        <time>2021-05-24T09:18:35.000Z</time>
      </trkpt>
      <trkpt lat="45.22556" lon="-0.55724">
        <ele>56.68</ele>
        <time>2021-05-24T09:18:35.000Z</time>
      </trkpt>
      <trkpt lat="45.22548" lon="-0.55731">
        <ele>53.94</ele>
        <time>2021-05-24T09:18:38.000Z</time>
      </trkpt>
      <trkpt lat="45.22539" lon="-0.55736">
        <ele>53.39</ele>
        <time>2021-05-24T09:18:40.000Z</time>
      </trkpt>
      <trkpt lat="45.22525" lon="-0.55743">
        <ele>55.93</ele>
        <time>2021-05-24T09:18:43.000Z</time>
      </trkpt>
      <trkpt lat="45.22516" lon="-0.55748">
        <ele>56.68</ele>
        <time>2021-05-24T09:18:45.000Z</time>
      </trkpt>
      <trkpt lat="45.22508" lon="-0.55759">
        <ele>55.61</ele>
        <time>2021-05-24T09:18:48.000Z</time>
      </trkpt>
      <trkpt lat="45.22499" lon="-0.55768">
        <ele>55.41</ele>
        <time>2021-05-24T09:18:50.000Z</time>
      </trkpt>
      <trkpt lat="45.22491" lon="-0.55774">
        <ele>55.14</ele>
        <time>2021-05-24T09:21:04.000Z</time>
      </trkpt>
      <trkpt lat="45.22484" lon="-0.55785">
        <ele>53.94</ele>
        <time>2021-05-24T09:21:08.000Z</time>
      </trkpt>
      <trkpt lat="45.22476" lon="-0.55796">
        <ele>54.14</ele>
        <time>2021-05-24T09:21:11.000Z</time>
      </trkpt>
      <trkpt lat="45.22467" lon="-0.55806">
        <ele>53.41</ele>
        <time>2021-05-24T09:21:14.000Z</time>
      </trkpt>
      <trkpt lat="45.22456" lon="-0.55814">
        <ele>53.57</ele>
        <time>2021-05-24T09:21:17.000Z</time>
      </trkpt>
      <trkpt lat="45.22444" lon="-0.55823">
        <ele>53.03</ele>
        <time>2021-05-24T09:21:20.000Z</time>
      </trkpt>
      <trkpt lat="45.22436" lon="-0.5583">
        <ele>53.13</ele>
        <time>2021-05-24T09:21:22.000Z</time>
      </trkpt>
      <trkpt lat="45.22428" lon="-0.55836">
        <ele>53</ele>
        <time>2021-05-24T09:21:24.000Z</time>
      </trkpt>
      <trkpt lat="45.2242" lon="-0.55843">
        <ele>52.59</ele>
        <time>2021-05-24T09:21:26.000Z</time>
      </trkpt>
      <trkpt lat="45.22412" lon="-0.5585">
        <ele>52.83</ele>
        <time>2021-05-24T09:21:28.000Z</time>
      </trkpt>
      <trkpt lat="45.22404" lon="-0.55863">
        <ele>53</ele>
        <time>2021-05-24T09:21:31.000Z</time>
      </trkpt>
      <trkpt lat="45.22401" lon="-0.55881">
        <ele>53.81</ele>
        <time>2021-05-24T09:21:34.000Z</time>
      </trkpt>
      <trkpt lat="45.22398" lon="-0.55896">
        <ele>53.92</ele>
        <time>2021-05-24T09:21:37.000Z</time>
      </trkpt>
      <trkpt lat="45.22393" lon="-0.55909">
        <ele>54.54</ele>
        <time>2021-05-24T09:21:40.000Z</time>
      </trkpt>
      <trkpt lat="45.22389" lon="-0.55922">
        <ele>54.45</ele>
        <time>2021-05-24T09:21:43.000Z</time>
      </trkpt>
      <trkpt lat="45.22385" lon="-0.55936">
        <ele>54.46</ele>
        <time>2021-05-24T09:21:46.000Z</time>
      </trkpt>
      <trkpt lat="45.22383" lon="-0.5595">
        <ele>55.01</ele>
        <time>2021-05-24T09:21:49.000Z</time>
      </trkpt>
      <trkpt lat="45.22381" lon="-0.55963">
        <ele>55.43</ele>
        <time>2021-05-24T09:21:52.000Z</time>
      </trkpt>
      <trkpt lat="45.22378" lon="-0.55978">
        <ele>55.58</ele>
        <time>2021-05-24T09:21:55.000Z</time>
      </trkpt>
      <trkpt lat="45.22375" lon="-0.55993">
        <ele>55.64</ele>
        <time>2021-05-24T09:21:58.000Z</time>
      </trkpt>
      <trkpt lat="45.22371" lon="-0.56008">
        <ele>56.31</ele>
        <time>2021-05-24T09:22:01.000Z</time>
      </trkpt>
      <trkpt lat="45.22365" lon="-0.56021">
        <ele>56.41</ele>
        <time>2021-05-24T09:22:04.000Z</time>
      </trkpt>
      <trkpt lat="45.22359" lon="-0.56033">
        <ele>55.63</ele>
        <time>2021-05-24T09:22:07.000Z</time>
      </trkpt>
      <trkpt lat="45.22353" lon="-0.56043">
        <ele>55.47</ele>
        <time>2021-05-24T09:22:10.000Z</time>
      </trkpt>
      <trkpt lat="45.22347" lon="-0.56053">
        <ele>54.03</ele>
        <time>2021-05-24T09:22:13.000Z</time>
      </trkpt>
      <trkpt lat="45.2234" lon="-0.56062">
        <ele>54.17</ele>
        <time>2021-05-24T09:22:16.000Z</time>
      </trkpt>
      <trkpt lat="45.22334" lon="-0.56072">
        <ele>53.25</ele>
        <time>2021-05-24T09:22:19.000Z</time>
      </trkpt>
      <trkpt lat="45.22327" lon="-0.56082">
        <ele>53.32</ele>
        <time>2021-05-24T09:22:22.000Z</time>
      </trkpt>
      <trkpt lat="45.22319" lon="-0.56092">
        <ele>53.01</ele>
        <time>2021-05-24T09:22:25.000Z</time>
      </trkpt>
      <trkpt lat="45.22312" lon="-0.56102">
        <ele>52.46</ele>
        <time>2021-05-24T09:22:28.000Z</time>
      </trkpt>
      <trkpt lat="45.22304" lon="-0.56112">
        <ele>52.06</ele>
        <time>2021-05-24T09:22:31.000Z</time>
      </trkpt>
      <trkpt lat="45.22296" lon="-0.56122">
        <ele>51.57</ele>
        <time>2021-05-24T09:22:34.000Z</time>
      </trkpt>
      <trkpt lat="45.22288" lon="-0.56133">
        <ele>50.27</ele>
        <time>2021-05-24T09:22:37.000Z</time>
      </trkpt>
      <trkpt lat="45.22279" lon="-0.56144">
        <ele>50.22</ele>
        <time>2021-05-24T09:22:40.000Z</time>
      </trkpt>
      <trkpt lat="45.22271" lon="-0.56154">
        <ele>49.72</ele>
        <time>2021-05-24T09:22:43.000Z</time>
      </trkpt>
      <trkpt lat="45.22261" lon="-0.56159">
        <ele>48.23</ele>
        <time>2021-05-24T09:23:26.000Z</time>
      </trkpt>
      <trkpt lat="45.22252" lon="-0.56166">
        <ele>46.9</ele>
        <time>2021-05-24T09:23:30.000Z</time>
      </trkpt>
      <trkpt lat="45.22242" lon="-0.56167">
        <ele>46.67</ele>
        <time>2021-05-24T09:23:33.000Z</time>
      </trkpt>
      <trkpt lat="45.22232" lon="-0.5617">
        <ele>47.34</ele>
        <time>2021-05-24T09:23:36.000Z</time>
      </trkpt>
      <trkpt lat="45.22221" lon="-0.56175">
        <ele>47.89</ele>
        <time>2021-05-24T09:23:39.000Z</time>
      </trkpt>
      <trkpt lat="45.22213" lon="-0.56184">
        <ele>48.97</ele>
        <time>2021-05-24T09:23:42.000Z</time>
      </trkpt>
      <trkpt lat="45.22205" lon="-0.56194">
        <ele>49.19</ele>
        <time>2021-05-24T09:23:45.000Z</time>
      </trkpt>
      <trkpt lat="45.22197" lon="-0.56205">
        <ele>49.57</ele>
        <time>2021-05-24T09:23:48.000Z</time>
      </trkpt>
      <trkpt lat="45.2219" lon="-0.56217">
        <ele>49.31</ele>
        <time>2021-05-24T09:23:51.000Z</time>
      </trkpt>
      <trkpt lat="45.22183" lon="-0.56229">
        <ele>49.12</ele>
        <time>2021-05-24T09:23:54.000Z</time>
      </trkpt>
      <trkpt lat="45.22176" lon="-0.56241">
        <ele>49.52</ele>
        <time>2021-05-24T09:23:57.000Z</time>
      </trkpt>
      <trkpt lat="45.22168" lon="-0.56253">
        <ele>49.32</ele>
        <time>2021-05-24T09:24:00.000Z</time>
      </trkpt>
      <trkpt lat="45.2216" lon="-0.56266">
        <ele>49.38</ele>
        <time>2021-05-24T09:24:03.000Z</time>
      </trkpt>
      <trkpt lat="45.22152" lon="-0.56278">
        <ele>49.27</ele>
        <time>2021-05-24T09:24:06.000Z</time>
      </trkpt>
      <trkpt lat="45.22144" lon="-0.56292">
        <ele>49.27</ele>
        <time>2021-05-24T09:24:09.000Z</time>
      </trkpt>
      <trkpt lat="45.22137" lon="-0.56304">
        <ele>49.11</ele>
        <time>2021-05-24T09:24:12.000Z</time>
      </trkpt>
      <trkpt lat="45.22129" lon="-0.56318">
        <ele>49.28</ele>
        <time>2021-05-24T09:24:15.000Z</time>
      </trkpt>
      <trkpt lat="45.22121" lon="-0.5633">
        <ele>48.84</ele>
        <time>2021-05-24T09:24:18.000Z</time>
      </trkpt>
      <trkpt lat="45.22112" lon="-0.56341">
        <ele>48.29</ele>
        <time>2021-05-24T09:24:21.000Z</time>
      </trkpt>
      <trkpt lat="45.22101" lon="-0.56345">
        <ele>49.68</ele>
        <time>2021-05-24T09:24:24.000Z</time>
      </trkpt>
      <trkpt lat="45.22091" lon="-0.56342">
        <ele>49.17</ele>
        <time>2021-05-24T09:24:27.000Z</time>
      </trkpt>
      <trkpt lat="45.22082" lon="-0.56337">
        <ele>50.24</ele>
        <time>2021-05-24T09:24:32.000Z</time>
      </trkpt>
      <trkpt lat="45.22091" lon="-0.56345">
        <ele>52.23</ele>
        <time>2021-05-24T09:24:39.000Z</time>
      </trkpt>
      <trkpt lat="45.221" lon="-0.56348">
        <ele>51.98</ele>
        <time>2021-05-24T09:24:42.000Z</time>
      </trkpt>
      <trkpt lat="45.22109" lon="-0.56344">
        <ele>52.21</ele>
        <time>2021-05-24T09:24:45.000Z</time>
      </trkpt>
      <trkpt lat="45.22116" lon="-0.56332">
        <ele>51.19</ele>
        <time>2021-05-24T09:24:50.000Z</time>
      </trkpt>
      <trkpt lat="45.22109" lon="-0.56342">
        <ele>55.67</ele>
        <time>2021-05-24T09:25:18.000Z</time>
      </trkpt>
      <trkpt lat="45.22097" lon="-0.56342">
        <ele>52.88</ele>
        <time>2021-05-24T09:27:14.000Z</time>
      </trkpt>
      <trkpt lat="45.22088" lon="-0.5634">
        <ele>52.87</ele>
        <time>2021-05-24T09:27:17.000Z</time>
      </trkpt>
      <trkpt lat="45.22078" lon="-0.56335">
        <ele>52.63</ele>
        <time>2021-05-24T09:27:20.000Z</time>
      </trkpt>
      <trkpt lat="45.22068" lon="-0.56329">
        <ele>53.48</ele>
        <time>2021-05-24T09:27:23.000Z</time>
      </trkpt>
      <trkpt lat="45.22058" lon="-0.56322">
        <ele>53.51</ele>
        <time>2021-05-24T09:27:26.000Z</time>
      </trkpt>
      <trkpt lat="45.22048" lon="-0.56313">
        <ele>53.02</ele>
        <time>2021-05-24T09:27:30.000Z</time>
      </trkpt>
      <trkpt lat="45.22039" lon="-0.56306">
        <ele>54.23</ele>
        <time>2021-05-24T09:27:33.000Z</time>
      </trkpt>
      <trkpt lat="45.2203" lon="-0.56298">
        <ele>55.02</ele>
        <time>2021-05-24T09:27:36.000Z</time>
      </trkpt>
      <trkpt lat="45.22022" lon="-0.56292">
        <ele>55.9</ele>
        <time>2021-05-24T09:27:39.000Z</time>
      </trkpt>
      <trkpt lat="45.22012" lon="-0.56283">
        <ele>56.03</ele>
        <time>2021-05-24T09:27:43.000Z</time>
      </trkpt>
      <trkpt lat="45.22005" lon="-0.56274">
        <ele>56.21</ele>
        <time>2021-05-24T09:27:47.000Z</time>
      </trkpt>
      <trkpt lat="45.21997" lon="-0.56265">
        <ele>56.31</ele>
        <time>2021-05-24T09:27:52.000Z</time>
      </trkpt>
      <trkpt lat="45.21989" lon="-0.56257">
        <ele>56.4</ele>
        <time>2021-05-24T09:27:57.000Z</time>
      </trkpt>
      <trkpt lat="45.21981" lon="-0.56251">
        <ele>57.05</ele>
        <time>2021-05-24T09:28:28.000Z</time>
      </trkpt>
      <trkpt lat="45.21974" lon="-0.56242">
        <ele>55.42</ele>
        <time>2021-05-24T09:28:35.000Z</time>
      </trkpt>
      <trkpt lat="45.21963" lon="-0.56232">
        <ele>55.69</ele>
        <time>2021-05-24T09:28:41.000Z</time>
      </trkpt>
      <trkpt lat="45.21955" lon="-0.5624">
        <ele>54.88</ele>
        <time>2021-05-24T09:29:04.000Z</time>
      </trkpt>
      <trkpt lat="45.21949" lon="-0.56252">
        <ele>54.47</ele>
        <time>2021-05-24T09:29:08.000Z</time>
      </trkpt>
      <trkpt lat="45.21943" lon="-0.56262">
        <ele>54.11</ele>
        <time>2021-05-24T09:29:11.000Z</time>
      </trkpt>
      <trkpt lat="45.21938" lon="-0.56273">
        <ele>53.48</ele>
        <time>2021-05-24T09:29:14.000Z</time>
      </trkpt>
      <trkpt lat="45.21932" lon="-0.56285">
        <ele>52.73</ele>
        <time>2021-05-24T09:29:17.000Z</time>
      </trkpt>
      <trkpt lat="45.21929" lon="-0.563">
        <ele>53.31</ele>
        <time>2021-05-24T09:29:20.000Z</time>
      </trkpt>
      <trkpt lat="45.21929" lon="-0.56315">
        <ele>53.4</ele>
        <time>2021-05-24T09:29:23.000Z</time>
      </trkpt>
      <trkpt lat="45.2193" lon="-0.5633">
        <ele>53.95</ele>
        <time>2021-05-24T09:29:26.000Z</time>
      </trkpt>
      <trkpt lat="45.2193" lon="-0.56345">
        <ele>54.21</ele>
        <time>2021-05-24T09:29:29.000Z</time>
      </trkpt>
      <trkpt lat="45.21931" lon="-0.56358">
        <ele>53.94</ele>
        <time>2021-05-24T09:29:32.000Z</time>
      </trkpt>
      <trkpt lat="45.21933" lon="-0.56373">
        <ele>54.86</ele>
        <time>2021-05-24T09:29:58.000Z</time>
      </trkpt>
      <trkpt lat="45.21934" lon="-0.56389">
        <ele>56.69</ele>
        <time>2021-05-24T09:30:02.000Z</time>
      </trkpt>
      <trkpt lat="45.21933" lon="-0.56404">
        <ele>58.88</ele>
        <time>2021-05-24T09:30:05.000Z</time>
      </trkpt>
      <trkpt lat="45.21934" lon="-0.5642">
        <ele>59.12</ele>
        <time>2021-05-24T09:30:09.000Z</time>
      </trkpt>
      <trkpt lat="45.21935" lon="-0.56437">
        <ele>57.83</ele>
        <time>2021-05-24T09:30:13.000Z</time>
      </trkpt>
      <trkpt lat="45.21936" lon="-0.56451">
        <ele>57.49</ele>
        <time>2021-05-24T09:30:16.000Z</time>
      </trkpt>
      <trkpt lat="45.21936" lon="-0.56467">
        <ele>57.3</ele>
        <time>2021-05-24T09:30:19.000Z</time>
      </trkpt>
      <trkpt lat="45.21938" lon="-0.56484">
        <ele>58.14</ele>
        <time>2021-05-24T09:30:22.000Z</time>
      </trkpt>
      <trkpt lat="45.21939" lon="-0.56499">
        <ele>57.97</ele>
        <time>2021-05-24T09:30:25.000Z</time>
      </trkpt>
      <trkpt lat="45.2194" lon="-0.56513">
        <ele>56.9</ele>
        <time>2021-05-24T09:30:28.000Z</time>
      </trkpt>
      <trkpt lat="45.2194" lon="-0.56529">
        <ele>56.65</ele>
        <time>2021-05-24T09:30:31.000Z</time>
      </trkpt>
      <trkpt lat="45.21942" lon="-0.56542">
        <ele>56.74</ele>
        <time>2021-05-24T09:30:34.000Z</time>
      </trkpt>
      <trkpt lat="45.21946" lon="-0.56556">
        <ele>56.9</ele>
        <time>2021-05-24T09:30:37.000Z</time>
      </trkpt>
      <trkpt lat="45.2195" lon="-0.5657">
        <ele>57.16</ele>
        <time>2021-05-24T09:30:40.000Z</time>
      </trkpt>
      <trkpt lat="45.21954" lon="-0.56584">
        <ele>57.71</ele>
        <time>2021-05-24T09:30:43.000Z</time>
      </trkpt>
      <trkpt lat="45.21957" lon="-0.56596">
        <ele>58.42</ele>
        <time>2021-05-24T09:30:46.000Z</time>
      </trkpt>
      <trkpt lat="45.2196" lon="-0.5661">
        <ele>58.5</ele>
        <time>2021-05-24T09:30:49.000Z</time>
      </trkpt>
      <trkpt lat="45.21963" lon="-0.56622">
        <ele>58.41</ele>
        <time>2021-05-24T09:30:52.000Z</time>
      </trkpt>
      <trkpt lat="45.21967" lon="-0.56634">
        <ele>58.84</ele>
        <time>2021-05-24T09:30:55.000Z</time>
      </trkpt>
      <trkpt lat="45.2197" lon="-0.56649">
        <ele>58.8</ele>
        <time>2021-05-24T09:30:59.000Z</time>
      </trkpt>
      <trkpt lat="45.21975" lon="-0.56662">
        <ele>57.3</ele>
        <time>2021-05-24T09:31:18.000Z</time>
      </trkpt>
      <trkpt lat="45.21975" lon="-0.56675">
        <ele>58.84</ele>
        <time>2021-05-24T09:31:46.000Z</time>
      </trkpt>
      <trkpt lat="45.21969" lon="-0.56686">
        <ele>58.79</ele>
        <time>2021-05-24T09:31:50.000Z</time>
      </trkpt>
      <trkpt lat="45.21961" lon="-0.56695">
        <ele>59.29</ele>
        <time>2021-05-24T09:31:53.000Z</time>
      </trkpt>
      <trkpt lat="45.21953" lon="-0.56703">
        <ele>58.99</ele>
        <time>2021-05-24T09:31:56.000Z</time>
      </trkpt>
      <trkpt lat="45.21945" lon="-0.56711">
        <ele>58.87</ele>
        <time>2021-05-24T09:31:59.000Z</time>
      </trkpt>
      <trkpt lat="45.21937" lon="-0.56718">
        <ele>58.76</ele>
        <time>2021-05-24T09:32:02.000Z</time>
      </trkpt>
      <trkpt lat="45.21929" lon="-0.56727">
        <ele>58.49</ele>
        <time>2021-05-24T09:32:05.000Z</time>
      </trkpt>
      <trkpt lat="45.21921" lon="-0.56735">
        <ele>58.66</ele>
        <time>2021-05-24T09:32:08.000Z</time>
      </trkpt>
      <trkpt lat="45.21912" lon="-0.56744">
        <ele>58.86</ele>
        <time>2021-05-24T09:32:11.000Z</time>
      </trkpt>
      <trkpt lat="45.21903" lon="-0.56752">
        <ele>58.45</ele>
        <time>2021-05-24T09:32:14.000Z</time>
      </trkpt>
      <trkpt lat="45.21894" lon="-0.56761">
        <ele>58.15</ele>
        <time>2021-05-24T09:32:17.000Z</time>
      </trkpt>
      <trkpt lat="45.21886" lon="-0.5677">
        <ele>57.77</ele>
        <time>2021-05-24T09:32:20.000Z</time>
      </trkpt>
      <trkpt lat="45.21876" lon="-0.5678">
        <ele>57.99</ele>
        <time>2021-05-24T09:32:23.000Z</time>
      </trkpt>
      <trkpt lat="45.21866" lon="-0.56788">
        <ele>58.08</ele>
        <time>2021-05-24T09:32:26.000Z</time>
      </trkpt>
      <trkpt lat="45.21856" lon="-0.56797">
        <ele>57.78</ele>
        <time>2021-05-24T09:32:29.000Z</time>
      </trkpt>
      <trkpt lat="45.21846" lon="-0.56805">
        <ele>57.31</ele>
        <time>2021-05-24T09:32:32.000Z</time>
      </trkpt>
      <trkpt lat="45.21837" lon="-0.56814">
        <ele>57.86</ele>
        <time>2021-05-24T09:32:35.000Z</time>
      </trkpt>
      <trkpt lat="45.21827" lon="-0.56823">
        <ele>57.83</ele>
        <time>2021-05-24T09:32:38.000Z</time>
      </trkpt>
      <trkpt lat="45.21819" lon="-0.56832">
        <ele>57.5</ele>
        <time>2021-05-24T09:32:41.000Z</time>
      </trkpt>
      <trkpt lat="45.21809" lon="-0.56843">
        <ele>57.96</ele>
        <time>2021-05-24T09:32:44.000Z</time>
      </trkpt>
      <trkpt lat="45.21801" lon="-0.56852">
        <ele>57.82</ele>
        <time>2021-05-24T09:32:47.000Z</time>
      </trkpt>
      <trkpt lat="45.21792" lon="-0.56861">
        <ele>57.1</ele>
        <time>2021-05-24T09:32:50.000Z</time>
      </trkpt>
      <trkpt lat="45.21783" lon="-0.56869">
        <ele>57.52</ele>
        <time>2021-05-24T09:32:53.000Z</time>
      </trkpt>
      <trkpt lat="45.21774" lon="-0.56877">
        <ele>57.01</ele>
        <time>2021-05-24T09:32:56.000Z</time>
      </trkpt>
      <trkpt lat="45.21769" lon="-0.56888">
        <ele>55.14</ele>
        <time>2021-05-24T09:33:02.000Z</time>
      </trkpt>
      <trkpt lat="45.21761" lon="-0.56894">
        <ele>53.15</ele>
        <time>2021-05-24T09:33:31.000Z</time>
      </trkpt>
      <trkpt lat="45.21752" lon="-0.56902">
        <ele>56.55</ele>
        <time>2021-05-24T09:33:43.000Z</time>
      </trkpt>
      <trkpt lat="45.21746" lon="-0.56911">
        <ele>56.95</ele>
        <time>2021-05-24T09:33:48.000Z</time>
      </trkpt>
      <trkpt lat="45.21737" lon="-0.56918">
        <ele>56.48</ele>
        <time>2021-05-24T09:33:53.000Z</time>
      </trkpt>
      <trkpt lat="45.21728" lon="-0.56921">
        <ele>58.11</ele>
        <time>2021-05-24T09:34:11.000Z</time>
      </trkpt>
      <trkpt lat="45.21718" lon="-0.56928">
        <ele>59.28</ele>
        <time>2021-05-24T09:34:15.000Z</time>
      </trkpt>
      <trkpt lat="45.21707" lon="-0.56935">
        <ele>59.1</ele>
        <time>2021-05-24T09:34:19.000Z</time>
      </trkpt>
      <trkpt lat="45.21699" lon="-0.56939">
        <ele>59.13</ele>
        <time>2021-05-24T09:34:22.000Z</time>
      </trkpt>
      <trkpt lat="45.21688" lon="-0.56947">
        <ele>59.26</ele>
        <time>2021-05-24T09:34:26.000Z</time>
      </trkpt>
      <trkpt lat="45.21678" lon="-0.56952">
        <ele>59.28</ele>
        <time>2021-05-24T09:34:30.000Z</time>
      </trkpt>
      <trkpt lat="45.21668" lon="-0.56958">
        <ele>59</ele>
        <time>2021-05-24T09:34:33.000Z</time>
      </trkpt>
      <trkpt lat="45.21657" lon="-0.56963">
        <ele>58.83</ele>
        <time>2021-05-24T09:34:36.000Z</time>
      </trkpt>
      <trkpt lat="45.21648" lon="-0.56968">
        <ele>58.05</ele>
        <time>2021-05-24T09:34:39.000Z</time>
      </trkpt>
      <trkpt lat="45.21638" lon="-0.56976">
        <ele>57.97</ele>
        <time>2021-05-24T09:34:42.000Z</time>
      </trkpt>
      <trkpt lat="45.21627" lon="-0.5698">
        <ele>58.11</ele>
        <time>2021-05-24T09:34:45.000Z</time>
      </trkpt>
      <trkpt lat="45.21618" lon="-0.56985">
        <ele>57.65</ele>
        <time>2021-05-24T09:34:48.000Z</time>
      </trkpt>
      <trkpt lat="45.21609" lon="-0.56989">
        <ele>57.66</ele>
        <time>2021-05-24T09:34:51.000Z</time>
      </trkpt>
      <trkpt lat="45.21601" lon="-0.56994">
        <ele>58.16</ele>
        <time>2021-05-24T09:34:54.000Z</time>
      </trkpt>
      <trkpt lat="45.21591" lon="-0.56999">
        <ele>59.1</ele>
        <time>2021-05-24T09:34:59.000Z</time>
      </trkpt>
      <trkpt lat="45.2158" lon="-0.57006">
        <ele>59.95</ele>
        <time>2021-05-24T09:35:04.000Z</time>
      </trkpt>
      <trkpt lat="45.21571" lon="-0.57012">
        <ele>60.85</ele>
        <time>2021-05-24T09:35:08.000Z</time>
      </trkpt>
      <trkpt lat="45.21562" lon="-0.57017">
        <ele>60.46</ele>
        <time>2021-05-24T09:35:11.000Z</time>
      </trkpt>
      <trkpt lat="45.21553" lon="-0.57023">
        <ele>60.27</ele>
        <time>2021-05-24T09:35:14.000Z</time>
      </trkpt>
      <trkpt lat="45.21542" lon="-0.57029">
        <ele>59.55</ele>
        <time>2021-05-24T09:35:17.000Z</time>
      </trkpt>
      <trkpt lat="45.21532" lon="-0.57036">
        <ele>59.15</ele>
        <time>2021-05-24T09:35:20.000Z</time>
      </trkpt>
      <trkpt lat="45.21521" lon="-0.57042">
        <ele>58.92</ele>
        <time>2021-05-24T09:35:23.000Z</time>
      </trkpt>
      <trkpt lat="45.21509" lon="-0.57049">
        <ele>58.82</ele>
        <time>2021-05-24T09:35:26.000Z</time>
      </trkpt>
      <trkpt lat="45.21498" lon="-0.57055">
        <ele>59.02</ele>
        <time>2021-05-24T09:35:29.000Z</time>
      </trkpt>
      <trkpt lat="45.21487" lon="-0.57062">
        <ele>59.18</ele>
        <time>2021-05-24T09:35:32.000Z</time>
      </trkpt>
      <trkpt lat="45.21475" lon="-0.57068">
        <ele>59.14</ele>
        <time>2021-05-24T09:35:35.000Z</time>
      </trkpt>
      <trkpt lat="45.21464" lon="-0.57075">
        <ele>59.4</ele>
        <time>2021-05-24T09:35:38.000Z</time>
      </trkpt>
      <trkpt lat="45.21452" lon="-0.57081">
        <ele>59.61</ele>
        <time>2021-05-24T09:35:41.000Z</time>
      </trkpt>
      <trkpt lat="45.21441" lon="-0.57088">
        <ele>59.63</ele>
        <time>2021-05-24T09:35:44.000Z</time>
      </trkpt>
      <trkpt lat="45.21429" lon="-0.57095">
        <ele>59.48</ele>
        <time>2021-05-24T09:35:47.000Z</time>
      </trkpt>
      <trkpt lat="45.21419" lon="-0.57101">
        <ele>59.8</ele>
        <time>2021-05-24T09:35:50.000Z</time>
      </trkpt>
      <trkpt lat="45.21408" lon="-0.57107">
        <ele>59.52</ele>
        <time>2021-05-24T09:35:53.000Z</time>
      </trkpt>
      <trkpt lat="45.21397" lon="-0.57113">
        <ele>59.59</ele>
        <time>2021-05-24T09:35:56.000Z</time>
      </trkpt>
      <trkpt lat="45.21387" lon="-0.57119">
        <ele>60.14</ele>
        <time>2021-05-24T09:35:59.000Z</time>
      </trkpt>
      <trkpt lat="45.21376" lon="-0.57126">
        <ele>60.26</ele>
        <time>2021-05-24T09:36:02.000Z</time>
      </trkpt>
      <trkpt lat="45.21366" lon="-0.57131">
        <ele>60.31</ele>
        <time>2021-05-24T09:36:05.000Z</time>
      </trkpt>
      <trkpt lat="45.21355" lon="-0.57137">
        <ele>60.74</ele>
        <time>2021-05-24T09:36:08.000Z</time>
      </trkpt>
      <trkpt lat="45.21344" lon="-0.57142">
        <ele>60.77</ele>
        <time>2021-05-24T09:36:11.000Z</time>
      </trkpt>
      <trkpt lat="45.21335" lon="-0.57149">
        <ele>61.35</ele>
        <time>2021-05-24T09:36:14.000Z</time>
      </trkpt>
      <trkpt lat="45.21325" lon="-0.57154">
        <ele>61.63</ele>
        <time>2021-05-24T09:36:17.000Z</time>
      </trkpt>
      <trkpt lat="45.21316" lon="-0.5716">
        <ele>61.86</ele>
        <time>2021-05-24T09:36:20.000Z</time>
      </trkpt>
      <trkpt lat="45.21306" lon="-0.57166">
        <ele>62.88</ele>
        <time>2021-05-24T09:36:24.000Z</time>
      </trkpt>
      <trkpt lat="45.21297" lon="-0.57172">
        <ele>62.71</ele>
        <time>2021-05-24T09:36:29.000Z</time>
      </trkpt>
      <trkpt lat="45.21286" lon="-0.57177">
        <ele>62.75</ele>
        <time>2021-05-24T09:36:33.000Z</time>
      </trkpt>
      <trkpt lat="45.21276" lon="-0.57182">
        <ele>62.96</ele>
        <time>2021-05-24T09:36:36.000Z</time>
      </trkpt>
      <trkpt lat="45.21266" lon="-0.57189">
        <ele>62.73</ele>
        <time>2021-05-24T09:36:39.000Z</time>
      </trkpt>
      <trkpt lat="45.21255" lon="-0.57194">
        <ele>63.02</ele>
        <time>2021-05-24T09:36:42.000Z</time>
      </trkpt>
      <trkpt lat="45.21244" lon="-0.57201">
        <ele>63.25</ele>
        <time>2021-05-24T09:36:45.000Z</time>
      </trkpt>
      <trkpt lat="45.21233" lon="-0.57207">
        <ele>64.16</ele>
        <time>2021-05-24T09:36:48.000Z</time>
      </trkpt>
      <trkpt lat="45.21222" lon="-0.57214">
        <ele>64.7</ele>
        <time>2021-05-24T09:36:51.000Z</time>
      </trkpt>
      <trkpt lat="45.21211" lon="-0.57219">
        <ele>65.26</ele>
        <time>2021-05-24T09:36:54.000Z</time>
      </trkpt>
      <trkpt lat="45.21198" lon="-0.57226">
        <ele>66</ele>
        <time>2021-05-24T09:36:57.000Z</time>
      </trkpt>
      <trkpt lat="45.21189" lon="-0.5723">
        <ele>65.22</ele>
        <time>2021-05-24T09:37:01.000Z</time>
      </trkpt>
      <trkpt lat="45.21178" lon="-0.57236">
        <ele>63.84</ele>
        <time>2021-05-24T09:37:04.000Z</time>
      </trkpt>
      <trkpt lat="45.21166" lon="-0.57244">
        <ele>63.71</ele>
        <time>2021-05-24T09:37:07.000Z</time>
      </trkpt>
      <trkpt lat="45.21155" lon="-0.57251">
        <ele>64.04</ele>
        <time>2021-05-24T09:37:10.000Z</time>
      </trkpt>
      <trkpt lat="45.21146" lon="-0.57255">
        <ele>64.43</ele>
        <time>2021-05-24T09:37:12.000Z</time>
      </trkpt>
      <trkpt lat="45.21136" lon="-0.57259">
        <ele>62.81</ele>
        <time>2021-05-24T09:37:15.000Z</time>
      </trkpt>
      <trkpt lat="45.21125" lon="-0.57265">
        <ele>60.41</ele>
        <time>2021-05-24T09:37:18.000Z</time>
      </trkpt>
      <trkpt lat="45.21116" lon="-0.5727">
        <ele>57.47</ele>
        <time>2021-05-24T09:37:22.000Z</time>
      </trkpt>
      <trkpt lat="45.21105" lon="-0.57275">
        <ele>55.24</ele>
        <time>2021-05-24T09:37:26.000Z</time>
      </trkpt>
      <trkpt lat="45.21095" lon="-0.5728">
        <ele>55.6</ele>
        <time>2021-05-24T09:37:29.000Z</time>
      </trkpt>
      <trkpt lat="45.21084" lon="-0.57287">
        <ele>55.52</ele>
        <time>2021-05-24T09:37:32.000Z</time>
      </trkpt>
      <trkpt lat="45.21073" lon="-0.57294">
        <ele>55.33</ele>
        <time>2021-05-24T09:37:35.000Z</time>
      </trkpt>
      <trkpt lat="45.21062" lon="-0.573">
        <ele>55.56</ele>
        <time>2021-05-24T09:37:38.000Z</time>
      </trkpt>
      <trkpt lat="45.21053" lon="-0.57305">
        <ele>54.29</ele>
        <time>2021-05-24T09:37:41.000Z</time>
      </trkpt>
      <trkpt lat="45.21042" lon="-0.5731">
        <ele>53.65</ele>
        <time>2021-05-24T09:37:44.000Z</time>
      </trkpt>
      <trkpt lat="45.21032" lon="-0.57315">
        <ele>54</ele>
        <time>2021-05-24T09:37:47.000Z</time>
      </trkpt>
      <trkpt lat="45.21021" lon="-0.57321">
        <ele>56.19</ele>
        <time>2021-05-24T09:37:50.000Z</time>
      </trkpt>
      <trkpt lat="45.21009" lon="-0.57328">
        <ele>59.62</ele>
        <time>2021-05-24T09:37:52.000Z</time>
      </trkpt>
      <trkpt lat="45.21001" lon="-0.57334">
        <ele>62.2</ele>
        <time>2021-05-24T09:37:54.000Z</time>
      </trkpt>
      <trkpt lat="45.20988" lon="-0.57346">
        <ele>69.58</ele>
        <time>2021-05-24T09:37:56.000Z</time>
      </trkpt>
      <trkpt lat="45.2098" lon="-0.57353">
        <ele>68.64</ele>
        <time>2021-05-24T09:38:00.000Z</time>
      </trkpt>
      <trkpt lat="45.20969" lon="-0.5736">
        <ele>68.17</ele>
        <time>2021-05-24T09:38:04.000Z</time>
      </trkpt>
      <trkpt lat="45.2096" lon="-0.57365">
        <ele>66.88</ele>
        <time>2021-05-24T09:38:07.000Z</time>
      </trkpt>
      <trkpt lat="45.20951" lon="-0.57371">
        <ele>65.89</ele>
        <time>2021-05-24T09:38:10.000Z</time>
      </trkpt>
      <trkpt lat="45.20941" lon="-0.57375">
        <ele>65.83</ele>
        <time>2021-05-24T09:38:13.000Z</time>
      </trkpt>
      <trkpt lat="45.20932" lon="-0.5738">
        <ele>66.84</ele>
        <time>2021-05-24T09:38:16.000Z</time>
      </trkpt>
      <trkpt lat="45.20923" lon="-0.57384">
        <ele>67.09</ele>
        <time>2021-05-24T09:38:20.000Z</time>
      </trkpt>
      <trkpt lat="45.20914" lon="-0.57389">
        <ele>67.06</ele>
        <time>2021-05-24T09:38:25.000Z</time>
      </trkpt>
      <trkpt lat="45.20905" lon="-0.57394">
        <ele>67.34</ele>
        <time>2021-05-24T09:38:29.000Z</time>
      </trkpt>
      <trkpt lat="45.20896" lon="-0.57398">
        <ele>66.98</ele>
        <time>2021-05-24T09:38:33.000Z</time>
      </trkpt>
      <trkpt lat="45.20891" lon="-0.57409">
        <ele>66.5</ele>
        <time>2021-05-24T09:38:39.000Z</time>
      </trkpt>
      <trkpt lat="45.20896" lon="-0.57398">
        <ele>67.03</ele>
        <time>2021-05-24T09:38:44.000Z</time>
      </trkpt>
      <trkpt lat="45.20905" lon="-0.57393">
        <ele>66.91</ele>
        <time>2021-05-24T09:38:47.000Z</time>
      </trkpt>
      <trkpt lat="45.20896" lon="-0.57399">
        <ele>67.51</ele>
        <time>2021-05-24T09:39:03.000Z</time>
      </trkpt>
      <trkpt lat="45.20887" lon="-0.57403">
        <ele>67.35</ele>
        <time>2021-05-24T09:39:08.000Z</time>
      </trkpt>
      <trkpt lat="45.20878" lon="-0.57408">
        <ele>67.5</ele>
        <time>2021-05-24T09:39:12.000Z</time>
      </trkpt>
      <trkpt lat="45.20869" lon="-0.57413">
        <ele>67.49</ele>
        <time>2021-05-24T09:39:15.000Z</time>
      </trkpt>
      <trkpt lat="45.2086" lon="-0.5742">
        <ele>67.32</ele>
        <time>2021-05-24T09:39:18.000Z</time>
      </trkpt>
      <trkpt lat="45.2085" lon="-0.57425">
        <ele>67.73</ele>
        <time>2021-05-24T09:39:21.000Z</time>
      </trkpt>
      <trkpt lat="45.20838" lon="-0.57432">
        <ele>68.32</ele>
        <time>2021-05-24T09:39:24.000Z</time>
      </trkpt>
      <trkpt lat="45.20827" lon="-0.57437">
        <ele>68.41</ele>
        <time>2021-05-24T09:39:27.000Z</time>
      </trkpt>
      <trkpt lat="45.20816" lon="-0.57442">
        <ele>68.11</ele>
        <time>2021-05-24T09:39:30.000Z</time>
      </trkpt>
      <trkpt lat="45.20804" lon="-0.5745">
        <ele>68.19</ele>
        <time>2021-05-24T09:39:33.000Z</time>
      </trkpt>
      <trkpt lat="45.20793" lon="-0.57458">
        <ele>68.11</ele>
        <time>2021-05-24T09:39:36.000Z</time>
      </trkpt>
      <trkpt lat="45.20781" lon="-0.57466">
        <ele>68.18</ele>
        <time>2021-05-24T09:39:39.000Z</time>
      </trkpt>
      <trkpt lat="45.20772" lon="-0.5747">
        <ele>69.31</ele>
        <time>2021-05-24T09:39:41.000Z</time>
      </trkpt>
      <trkpt lat="45.20761" lon="-0.57478">
        <ele>68.14</ele>
        <time>2021-05-24T09:39:44.000Z</time>
      </trkpt>
      <trkpt lat="45.20752" lon="-0.57482">
        <ele>69.07</ele>
        <time>2021-05-24T09:39:46.000Z</time>
      </trkpt>
      <trkpt lat="45.20743" lon="-0.57487">
        <ele>69.88</ele>
        <time>2021-05-24T09:39:49.000Z</time>
      </trkpt>
      <trkpt lat="45.20732" lon="-0.57494">
        <ele>69.62</ele>
        <time>2021-05-24T09:39:52.000Z</time>
      </trkpt>
      <trkpt lat="45.20723" lon="-0.57499">
        <ele>69.96</ele>
        <time>2021-05-24T09:39:54.000Z</time>
      </trkpt>
      <trkpt lat="45.20713" lon="-0.57506">
        <ele>68.17</ele>
        <time>2021-05-24T09:39:57.000Z</time>
      </trkpt>
      <trkpt lat="45.20703" lon="-0.57512">
        <ele>69.03</ele>
        <time>2021-05-24T09:40:00.000Z</time>
      </trkpt>
      <trkpt lat="45.20694" lon="-0.57516">
        <ele>69.21</ele>
        <time>2021-05-24T09:40:03.000Z</time>
      </trkpt>
      <trkpt lat="45.20686" lon="-0.57522">
        <ele>69.3</ele>
        <time>2021-05-24T09:40:06.000Z</time>
      </trkpt>
      <trkpt lat="45.20678" lon="-0.57528">
        <ele>67.08</ele>
        <time>2021-05-24T09:40:09.000Z</time>
      </trkpt>
      <trkpt lat="45.20668" lon="-0.57534">
        <ele>66.88</ele>
        <time>2021-05-24T09:40:13.000Z</time>
      </trkpt>
      <trkpt lat="45.20658" lon="-0.57539">
        <ele>68.2</ele>
        <time>2021-05-24T09:40:16.000Z</time>
      </trkpt>
      <trkpt lat="45.20648" lon="-0.57545">
        <ele>69.27</ele>
        <time>2021-05-24T09:40:19.000Z</time>
      </trkpt>
      <trkpt lat="45.20638" lon="-0.5755">
        <ele>69.12</ele>
        <time>2021-05-24T09:40:22.000Z</time>
      </trkpt>
      <trkpt lat="45.20629" lon="-0.57554">
        <ele>69.22</ele>
        <time>2021-05-24T09:40:25.000Z</time>
      </trkpt>
      <trkpt lat="45.20618" lon="-0.57561">
        <ele>68.65</ele>
        <time>2021-05-24T09:40:29.000Z</time>
      </trkpt>
      <trkpt lat="45.2061" lon="-0.57567">
        <ele>68.68</ele>
        <time>2021-05-24T09:40:33.000Z</time>
      </trkpt>
      <trkpt lat="45.20601" lon="-0.57572">
        <ele>67.2</ele>
        <time>2021-05-24T09:40:38.000Z</time>
      </trkpt>
      <trkpt lat="45.20595" lon="-0.57587">
        <ele>65.8</ele>
        <time>2021-05-24T09:40:42.000Z</time>
      </trkpt>
      <trkpt lat="45.20591" lon="-0.57603">
        <ele>65.24</ele>
        <time>2021-05-24T09:40:45.000Z</time>
      </trkpt>
      <trkpt lat="45.20586" lon="-0.57619">
        <ele>64.9</ele>
        <time>2021-05-24T09:40:48.000Z</time>
      </trkpt>
      <trkpt lat="45.20583" lon="-0.57631">
        <ele>66.39</ele>
        <time>2021-05-24T09:40:50.000Z</time>
      </trkpt>
      <trkpt lat="45.20578" lon="-0.57646">
        <ele>66.55</ele>
        <time>2021-05-24T09:40:53.000Z</time>
      </trkpt>
      <trkpt lat="45.20573" lon="-0.57663">
        <ele>65.86</ele>
        <time>2021-05-24T09:40:56.000Z</time>
      </trkpt>
      <trkpt lat="45.20567" lon="-0.57679">
        <ele>66.23</ele>
        <time>2021-05-24T09:40:59.000Z</time>
      </trkpt>
      <trkpt lat="45.20563" lon="-0.57697">
        <ele>67.07</ele>
        <time>2021-05-24T09:41:02.000Z</time>
      </trkpt>
      <trkpt lat="45.20558" lon="-0.57713">
        <ele>67.1</ele>
        <time>2021-05-24T09:41:05.000Z</time>
      </trkpt>
      <trkpt lat="45.20553" lon="-0.5773">
        <ele>67.29</ele>
        <time>2021-05-24T09:41:08.000Z</time>
      </trkpt>
      <trkpt lat="45.20548" lon="-0.57746">
        <ele>66.83</ele>
        <time>2021-05-24T09:41:11.000Z</time>
      </trkpt>
      <trkpt lat="45.20542" lon="-0.57763">
        <ele>66.23</ele>
        <time>2021-05-24T09:41:14.000Z</time>
      </trkpt>
      <trkpt lat="45.20537" lon="-0.5778">
        <ele>66.68</ele>
        <time>2021-05-24T09:41:17.000Z</time>
      </trkpt>
      <trkpt lat="45.20532" lon="-0.57797">
        <ele>66.93</ele>
        <time>2021-05-24T09:41:20.000Z</time>
      </trkpt>
      <trkpt lat="45.20527" lon="-0.57813">
        <ele>67.22</ele>
        <time>2021-05-24T09:41:23.000Z</time>
      </trkpt>
      <trkpt lat="45.20521" lon="-0.5783">
        <ele>67.44</ele>
        <time>2021-05-24T09:41:26.000Z</time>
      </trkpt>
      <trkpt lat="45.20516" lon="-0.57847">
        <ele>67.27</ele>
        <time>2021-05-24T09:41:29.000Z</time>
      </trkpt>
      <trkpt lat="45.20512" lon="-0.57862">
        <ele>66.76</ele>
        <time>2021-05-24T09:41:32.000Z</time>
      </trkpt>
      <trkpt lat="45.20507" lon="-0.57877">
        <ele>66.7</ele>
        <time>2021-05-24T09:41:35.000Z</time>
      </trkpt>
      <trkpt lat="45.20503" lon="-0.57893">
        <ele>66.4</ele>
        <time>2021-05-24T09:41:38.000Z</time>
      </trkpt>
      <trkpt lat="45.20497" lon="-0.57909">
        <ele>66.29</ele>
        <time>2021-05-24T09:41:41.000Z</time>
      </trkpt>
      <trkpt lat="45.20492" lon="-0.57926">
        <ele>67.22</ele>
        <time>2021-05-24T09:41:44.000Z</time>
      </trkpt>
      <trkpt lat="45.20487" lon="-0.57943">
        <ele>67.92</ele>
        <time>2021-05-24T09:41:47.000Z</time>
      </trkpt>
      <trkpt lat="45.20482" lon="-0.57959">
        <ele>67.18</ele>
        <time>2021-05-24T09:41:50.000Z</time>
      </trkpt>
      <trkpt lat="45.20477" lon="-0.57974">
        <ele>67.66</ele>
        <time>2021-05-24T09:41:53.000Z</time>
      </trkpt>
      <trkpt lat="45.20473" lon="-0.57988">
        <ele>67.06</ele>
        <time>2021-05-24T09:41:56.000Z</time>
      </trkpt>
      <trkpt lat="45.20468" lon="-0.58004">
        <ele>66.73</ele>
        <time>2021-05-24T09:41:59.000Z</time>
      </trkpt>
      <trkpt lat="45.20463" lon="-0.5802">
        <ele>66.71</ele>
        <time>2021-05-24T09:42:02.000Z</time>
      </trkpt>
      <trkpt lat="45.20458" lon="-0.58036">
        <ele>66.24</ele>
        <time>2021-05-24T09:42:05.000Z</time>
      </trkpt>
      <trkpt lat="45.20454" lon="-0.58053">
        <ele>65.87</ele>
        <time>2021-05-24T09:42:08.000Z</time>
      </trkpt>
      <trkpt lat="45.20449" lon="-0.58068">
        <ele>66.01</ele>
        <time>2021-05-24T09:42:11.000Z</time>
      </trkpt>
      <trkpt lat="45.20444" lon="-0.58084">
        <ele>65.8</ele>
        <time>2021-05-24T09:42:14.000Z</time>
      </trkpt>
      <trkpt lat="45.20439" lon="-0.58098">
        <ele>65.68</ele>
        <time>2021-05-24T09:42:17.000Z</time>
      </trkpt>
      <trkpt lat="45.20435" lon="-0.58112">
        <ele>66.1</ele>
        <time>2021-05-24T09:42:20.000Z</time>
      </trkpt>
      <trkpt lat="45.20432" lon="-0.58125">
        <ele>65.88</ele>
        <time>2021-05-24T09:42:23.000Z</time>
      </trkpt>
      <trkpt lat="45.20427" lon="-0.58137">
        <ele>65.77</ele>
        <time>2021-05-24T09:42:26.000Z</time>
      </trkpt>
      <trkpt lat="45.20424" lon="-0.58149">
        <ele>65.66</ele>
        <time>2021-05-24T09:42:29.000Z</time>
      </trkpt>
      <trkpt lat="45.2042" lon="-0.58161">
        <ele>64.1</ele>
        <time>2021-05-24T09:42:48.000Z</time>
      </trkpt>
      <trkpt lat="45.20416" lon="-0.58173">
        <ele>64.33</ele>
        <time>2021-05-24T09:42:51.000Z</time>
      </trkpt>
      <trkpt lat="45.20411" lon="-0.58186">
        <ele>63.12</ele>
        <time>2021-05-24T09:42:54.000Z</time>
      </trkpt>
      <trkpt lat="45.20407" lon="-0.58201">
        <ele>62.9</ele>
        <time>2021-05-24T09:42:57.000Z</time>
      </trkpt>
      <trkpt lat="45.20402" lon="-0.58214">
        <ele>62.67</ele>
        <time>2021-05-24T09:43:00.000Z</time>
      </trkpt>
      <trkpt lat="45.20399" lon="-0.58227">
        <ele>63.15</ele>
        <time>2021-05-24T09:43:03.000Z</time>
      </trkpt>
      <trkpt lat="45.20396" lon="-0.5824">
        <ele>63.79</ele>
        <time>2021-05-24T09:43:07.000Z</time>
      </trkpt>
      <trkpt lat="45.2039" lon="-0.58252">
        <ele>62.6</ele>
        <time>2021-05-24T09:43:28.000Z</time>
      </trkpt>
      <trkpt lat="45.20387" lon="-0.58266">
        <ele>63.13</ele>
        <time>2021-05-24T09:43:34.000Z</time>
      </trkpt>
      <trkpt lat="45.2039" lon="-0.58279">
        <ele>65.31</ele>
        <time>2021-05-24T09:44:44.000Z</time>
      </trkpt>
      <trkpt lat="45.204" lon="-0.58288">
        <ele>65.39</ele>
        <time>2021-05-24T09:45:42.000Z</time>
      </trkpt>
      <trkpt lat="45.20408" lon="-0.58294">
        <ele>64.65</ele>
        <time>2021-05-24T09:45:45.000Z</time>
      </trkpt>
      <trkpt lat="45.20418" lon="-0.583">
        <ele>64.92</ele>
        <time>2021-05-24T09:45:49.000Z</time>
      </trkpt>
      <trkpt lat="45.20427" lon="-0.58307">
        <ele>65.19</ele>
        <time>2021-05-24T09:45:53.000Z</time>
      </trkpt>
      <trkpt lat="45.20435" lon="-0.58313">
        <ele>65.99</ele>
        <time>2021-05-24T09:45:58.000Z</time>
      </trkpt>
      <trkpt lat="45.20444" lon="-0.58318">
        <ele>66.24</ele>
        <time>2021-05-24T09:46:03.000Z</time>
      </trkpt>
      <trkpt lat="45.20454" lon="-0.58325">
        <ele>66.01</ele>
        <time>2021-05-24T09:46:08.000Z</time>
      </trkpt>
      <trkpt lat="45.20464" lon="-0.58331">
        <ele>65.73</ele>
        <time>2021-05-24T09:46:12.000Z</time>
      </trkpt>
      <trkpt lat="45.20473" lon="-0.58339">
        <ele>66.31</ele>
        <time>2021-05-24T09:46:16.000Z</time>
      </trkpt>
      <trkpt lat="45.20482" lon="-0.58344">
        <ele>68.02</ele>
        <time>2021-05-24T09:47:10.000Z</time>
      </trkpt>
      <trkpt lat="45.20488" lon="-0.58354">
        <ele>66.67</ele>
        <time>2021-05-24T09:47:40.000Z</time>
      </trkpt>
      <trkpt lat="45.20482" lon="-0.58345">
        <ele>65.86</ele>
        <time>2021-05-24T09:48:00.000Z</time>
      </trkpt>
      <trkpt lat="45.20488" lon="-0.58355">
        <ele>65.82</ele>
        <time>2021-05-24T09:48:15.000Z</time>
      </trkpt>
      <trkpt lat="45.20495" lon="-0.58366">
        <ele>66.79</ele>
        <time>2021-05-24T09:48:25.000Z</time>
      </trkpt>
      <trkpt lat="45.20498" lon="-0.5838">
        <ele>66.17</ele>
        <time>2021-05-24T09:48:29.000Z</time>
      </trkpt>
      <trkpt lat="45.20502" lon="-0.58393">
        <ele>66.11</ele>
        <time>2021-05-24T09:48:34.000Z</time>
      </trkpt>
      <trkpt lat="45.20505" lon="-0.58406">
        <ele>66.63</ele>
        <time>2021-05-24T09:48:39.000Z</time>
      </trkpt>
      <trkpt lat="45.20509" lon="-0.58419">
        <ele>67.48</ele>
        <time>2021-05-24T09:48:44.000Z</time>
      </trkpt>
      <trkpt lat="45.20513" lon="-0.58431">
        <ele>67.01</ele>
        <time>2021-05-24T09:48:50.000Z</time>
      </trkpt>
      <trkpt lat="45.20517" lon="-0.58442">
        <ele>67.82</ele>
        <time>2021-05-24T09:49:01.000Z</time>
      </trkpt>
      <trkpt lat="45.2052" lon="-0.58458">
        <ele>66.27</ele>
        <time>2021-05-24T09:49:12.000Z</time>
      </trkpt>
      <trkpt lat="45.20525" lon="-0.58472">
        <ele>65.58</ele>
        <time>2021-05-24T09:49:16.000Z</time>
      </trkpt>
      <trkpt lat="45.20529" lon="-0.58486">
        <ele>64.85</ele>
        <time>2021-05-24T09:49:19.000Z</time>
      </trkpt>
      <trkpt lat="45.20533" lon="-0.585">
        <ele>64.48</ele>
        <time>2021-05-24T09:49:22.000Z</time>
      </trkpt>
      <trkpt lat="45.20538" lon="-0.58515">
        <ele>64.36</ele>
        <time>2021-05-24T09:49:25.000Z</time>
      </trkpt>
      <trkpt lat="45.20543" lon="-0.58532">
        <ele>64.35</ele>
        <time>2021-05-24T09:49:28.000Z</time>
      </trkpt>
      <trkpt lat="45.20547" lon="-0.58548">
        <ele>64.09</ele>
        <time>2021-05-24T09:49:31.000Z</time>
      </trkpt>
      <trkpt lat="45.20553" lon="-0.58566">
        <ele>63.78</ele>
        <time>2021-05-24T09:49:34.000Z</time>
      </trkpt>
      <trkpt lat="45.20556" lon="-0.58579">
        <ele>63.92</ele>
        <time>2021-05-24T09:49:36.000Z</time>
      </trkpt>
      <trkpt lat="45.2056" lon="-0.58591">
        <ele>63.56</ele>
        <time>2021-05-24T09:49:38.000Z</time>
      </trkpt>
      <trkpt lat="45.20563" lon="-0.58604">
        <ele>63.45</ele>
        <time>2021-05-24T09:49:40.000Z</time>
      </trkpt>
      <trkpt lat="45.20567" lon="-0.58616">
        <ele>63.06</ele>
        <time>2021-05-24T09:49:42.000Z</time>
      </trkpt>
      <trkpt lat="45.2057" lon="-0.58628">
        <ele>62.56</ele>
        <time>2021-05-24T09:49:44.000Z</time>
      </trkpt>
      <trkpt lat="45.20574" lon="-0.58645">
        <ele>62.05</ele>
        <time>2021-05-24T09:49:47.000Z</time>
      </trkpt>
      <trkpt lat="45.20578" lon="-0.58661">
        <ele>62.31</ele>
        <time>2021-05-24T09:49:50.000Z</time>
      </trkpt>
      <trkpt lat="45.20582" lon="-0.58676">
        <ele>62.09</ele>
        <time>2021-05-24T09:49:53.000Z</time>
      </trkpt>
      <trkpt lat="45.20586" lon="-0.58689">
        <ele>62.33</ele>
        <time>2021-05-24T09:49:56.000Z</time>
      </trkpt>
      <trkpt lat="45.2059" lon="-0.58701">
        <ele>61.54</ele>
        <time>2021-05-24T09:50:26.000Z</time>
      </trkpt>
      <trkpt lat="45.20594" lon="-0.58715">
        <ele>61.5</ele>
        <time>2021-05-24T09:50:31.000Z</time>
      </trkpt>
      <trkpt lat="45.20599" lon="-0.58726">
        <ele>61.54</ele>
        <time>2021-05-24T09:51:08.000Z</time>
      </trkpt>
      <trkpt lat="45.20608" lon="-0.58722">
        <ele>62.87</ele>
        <time>2021-05-24T09:52:42.000Z</time>
      </trkpt>
      <trkpt lat="45.20608" lon="-0.58722">
        <ele>62.87</ele>
        <time>2021-05-24T09:52:42.000Z</time>
      </trkpt>
      <trkpt lat="45.20608" lon="-0.58722">
        <ele>62.87</ele>
        <time>2021-05-24T09:52:42.000Z</time>
      </trkpt>
      <trkpt lat="45.20617" lon="-0.58716">
        <ele>60.92</ele>
        <time>2021-05-24T09:52:45.000Z</time>
      </trkpt>
      <trkpt lat="45.20627" lon="-0.58711">
        <ele>60.9</ele>
        <time>2021-05-24T09:52:48.000Z</time>
      </trkpt>
      <trkpt lat="45.20634" lon="-0.58705">
        <ele>61.15</ele>
        <time>2021-05-24T09:52:50.000Z</time>
      </trkpt>
      <trkpt lat="45.20646" lon="-0.587">
        <ele>61.24</ele>
        <time>2021-05-24T09:52:53.000Z</time>
      </trkpt>
      <trkpt lat="45.20657" lon="-0.58694">
        <ele>61.63</ele>
        <time>2021-05-24T09:52:56.000Z</time>
      </trkpt>
      <trkpt lat="45.20667" lon="-0.58688">
        <ele>60.45</ele>
        <time>2021-05-24T09:52:59.000Z</time>
      </trkpt>
      <trkpt lat="45.20677" lon="-0.58683">
        <ele>61.07</ele>
        <time>2021-05-24T09:53:02.000Z</time>
      </trkpt>
      <trkpt lat="45.20688" lon="-0.58677">
        <ele>61.3</ele>
        <time>2021-05-24T09:53:05.000Z</time>
      </trkpt>
      <trkpt lat="45.20699" lon="-0.58671">
        <ele>62.08</ele>
        <time>2021-05-24T09:53:08.000Z</time>
      </trkpt>
      <trkpt lat="45.2071" lon="-0.58666">
        <ele>62.56</ele>
        <time>2021-05-24T09:53:11.000Z</time>
      </trkpt>
      <trkpt lat="45.20722" lon="-0.5866">
        <ele>62.96</ele>
        <time>2021-05-24T09:53:14.000Z</time>
      </trkpt>
      <trkpt lat="45.20732" lon="-0.58653">
        <ele>62.6</ele>
        <time>2021-05-24T09:53:17.000Z</time>
      </trkpt>
      <trkpt lat="45.20742" lon="-0.58648">
        <ele>61.57</ele>
        <time>2021-05-24T09:53:20.000Z</time>
      </trkpt>
      <trkpt lat="45.20752" lon="-0.58642">
        <ele>61.13</ele>
        <time>2021-05-24T09:53:23.000Z</time>
      </trkpt>
      <trkpt lat="45.20763" lon="-0.58635">
        <ele>60.47</ele>
        <time>2021-05-24T09:53:26.000Z</time>
      </trkpt>
      <trkpt lat="45.20773" lon="-0.5863">
        <ele>60.55</ele>
        <time>2021-05-24T09:53:29.000Z</time>
      </trkpt>
      <trkpt lat="45.20783" lon="-0.58625">
        <ele>60.29</ele>
        <time>2021-05-24T09:53:32.000Z</time>
      </trkpt>
      <trkpt lat="45.20794" lon="-0.58619">
        <ele>61.13</ele>
        <time>2021-05-24T09:53:35.000Z</time>
      </trkpt>
      <trkpt lat="45.20805" lon="-0.58613">
        <ele>61.68</ele>
        <time>2021-05-24T09:53:38.000Z</time>
      </trkpt>
      <trkpt lat="45.20815" lon="-0.58608">
        <ele>63.58</ele>
        <time>2021-05-24T09:53:41.000Z</time>
      </trkpt>
      <trkpt lat="45.20827" lon="-0.58604">
        <ele>63.19</ele>
        <time>2021-05-24T09:53:44.000Z</time>
      </trkpt>
      <trkpt lat="45.20838" lon="-0.58599">
        <ele>64.53</ele>
        <time>2021-05-24T09:53:47.000Z</time>
      </trkpt>
      <trkpt lat="45.2085" lon="-0.58593">
        <ele>63.59</ele>
        <time>2021-05-24T09:53:50.000Z</time>
      </trkpt>
      <trkpt lat="45.20861" lon="-0.58587">
        <ele>65.21</ele>
        <time>2021-05-24T09:53:53.000Z</time>
      </trkpt>
      <trkpt lat="45.2087" lon="-0.58581">
        <ele>62.16</ele>
        <time>2021-05-24T09:53:57.000Z</time>
      </trkpt>
      <trkpt lat="45.20878" lon="-0.58574">
        <ele>60.62</ele>
        <time>2021-05-24T09:54:00.000Z</time>
      </trkpt>
      <trkpt lat="45.20887" lon="-0.58565">
        <ele>54.81</ele>
        <time>2021-05-24T09:54:04.000Z</time>
      </trkpt>
      <trkpt lat="45.20898" lon="-0.5856">
        <ele>54.68</ele>
        <time>2021-05-24T09:54:07.000Z</time>
      </trkpt>
      <trkpt lat="45.20909" lon="-0.58558">
        <ele>54.91</ele>
        <time>2021-05-24T09:54:11.000Z</time>
      </trkpt>
      <trkpt lat="45.209" lon="-0.5856">
        <ele>54.65</ele>
        <time>2021-05-24T09:54:24.000Z</time>
      </trkpt>
      <trkpt lat="45.2091" lon="-0.58556">
        <ele>58.39</ele>
        <time>2021-05-24T09:54:51.000Z</time>
      </trkpt>
      <trkpt lat="45.20919" lon="-0.58552">
        <ele>59.23</ele>
        <time>2021-05-24T09:54:58.000Z</time>
      </trkpt>
      <trkpt lat="45.20927" lon="-0.58547">
        <ele>57.73</ele>
        <time>2021-05-24T09:55:16.000Z</time>
      </trkpt>
      <trkpt lat="45.20937" lon="-0.58541">
        <ele>57.12</ele>
        <time>2021-05-24T09:55:20.000Z</time>
      </trkpt>
      <trkpt lat="45.20945" lon="-0.58535">
        <ele>51.86</ele>
        <time>2021-05-24T09:55:24.000Z</time>
      </trkpt>
      <trkpt lat="45.20953" lon="-0.58529">
        <ele>52.39</ele>
        <time>2021-05-24T09:55:27.000Z</time>
      </trkpt>
      <trkpt lat="45.20967" lon="-0.58522">
        <ele>54.07</ele>
        <time>2021-05-24T09:55:31.000Z</time>
      </trkpt>
      <trkpt lat="45.20976" lon="-0.58518">
        <ele>55.46</ele>
        <time>2021-05-24T09:55:33.000Z</time>
      </trkpt>
      <trkpt lat="45.20985" lon="-0.58513">
        <ele>57.24</ele>
        <time>2021-05-24T09:55:35.000Z</time>
      </trkpt>
      <trkpt lat="45.20996" lon="-0.58508">
        <ele>57.74</ele>
        <time>2021-05-24T09:55:37.000Z</time>
      </trkpt>
      <trkpt lat="45.21006" lon="-0.58504">
        <ele>57.26</ele>
        <time>2021-05-24T09:55:39.000Z</time>
      </trkpt>
      <trkpt lat="45.21016" lon="-0.585">
        <ele>58.05</ele>
        <time>2021-05-24T09:55:42.000Z</time>
      </trkpt>
      <trkpt lat="45.21026" lon="-0.58496">
        <ele>59.53</ele>
        <time>2021-05-24T09:55:45.000Z</time>
      </trkpt>
      <trkpt lat="45.21034" lon="-0.58488">
        <ele>56.83</ele>
        <time>2021-05-24T09:55:49.000Z</time>
      </trkpt>
      <trkpt lat="45.21043" lon="-0.58479">
        <ele>54.5</ele>
        <time>2021-05-24T09:55:53.000Z</time>
      </trkpt>
      <trkpt lat="45.21053" lon="-0.58472">
        <ele>47.1</ele>
        <time>2021-05-24T09:55:57.000Z</time>
      </trkpt>
      <trkpt lat="45.21063" lon="-0.58464">
        <ele>40.38</ele>
        <time>2021-05-24T09:56:01.000Z</time>
      </trkpt>
      <trkpt lat="45.21072" lon="-0.58457">
        <ele>38.25</ele>
        <time>2021-05-24T09:56:04.000Z</time>
      </trkpt>
      <trkpt lat="45.21085" lon="-0.5845">
        <ele>38.4</ele>
        <time>2021-05-24T09:56:07.000Z</time>
      </trkpt>
      <trkpt lat="45.21094" lon="-0.58446">
        <ele>35.96</ele>
        <time>2021-05-24T09:56:10.000Z</time>
      </trkpt>
      <trkpt lat="45.21104" lon="-0.58443">
        <ele>32.39</ele>
        <time>2021-05-24T09:56:13.000Z</time>
      </trkpt>
      <trkpt lat="45.21115" lon="-0.58442">
        <ele>32.24</ele>
        <time>2021-05-24T09:56:16.000Z</time>
      </trkpt>
      <trkpt lat="45.21125" lon="-0.58438">
        <ele>36.83</ele>
        <time>2021-05-24T09:56:18.000Z</time>
      </trkpt>
      <trkpt lat="45.21136" lon="-0.58433">
        <ele>39.63</ele>
        <time>2021-05-24T09:56:20.000Z</time>
      </trkpt>
      <trkpt lat="45.21146" lon="-0.58427">
        <ele>42.88</ele>
        <time>2021-05-24T09:56:22.000Z</time>
      </trkpt>
      <trkpt lat="45.21161" lon="-0.58419">
        <ele>49.23</ele>
        <time>2021-05-24T09:56:25.000Z</time>
      </trkpt>
      <trkpt lat="45.21174" lon="-0.58412">
        <ele>51.1</ele>
        <time>2021-05-24T09:56:27.000Z</time>
      </trkpt>
      <trkpt lat="45.21184" lon="-0.58407">
        <ele>52.01</ele>
        <time>2021-05-24T09:56:29.000Z</time>
      </trkpt>
      <trkpt lat="45.21194" lon="-0.58402">
        <ele>54.14</ele>
        <time>2021-05-24T09:56:31.000Z</time>
      </trkpt>
      <trkpt lat="45.21207" lon="-0.58395">
        <ele>58.81</ele>
        <time>2021-05-24T09:56:34.000Z</time>
      </trkpt>
      <trkpt lat="45.21217" lon="-0.58389">
        <ele>58.3</ele>
        <time>2021-05-24T09:56:37.000Z</time>
      </trkpt>
      <trkpt lat="45.21226" lon="-0.58384">
        <ele>58.98</ele>
        <time>2021-05-24T09:56:47.000Z</time>
      </trkpt>
      <trkpt lat="45.21236" lon="-0.5838">
        <ele>59.7</ele>
        <time>2021-05-24T09:56:51.000Z</time>
      </trkpt>
      <trkpt lat="45.21246" lon="-0.58374">
        <ele>58.88</ele>
        <time>2021-05-24T09:56:56.000Z</time>
      </trkpt>
      <trkpt lat="45.21254" lon="-0.58369">
        <ele>59.13</ele>
        <time>2021-05-24T09:57:00.000Z</time>
      </trkpt>
      <trkpt lat="45.21266" lon="-0.58363">
        <ele>60.12</ele>
        <time>2021-05-24T09:57:03.000Z</time>
      </trkpt>
      <trkpt lat="45.21278" lon="-0.58356">
        <ele>60.94</ele>
        <time>2021-05-24T09:57:06.000Z</time>
      </trkpt>
      <trkpt lat="45.21288" lon="-0.58351">
        <ele>60.7</ele>
        <time>2021-05-24T09:57:09.000Z</time>
      </trkpt>
      <trkpt lat="45.21279" lon="-0.58355">
        <ele>60.04</ele>
        <time>2021-05-24T09:57:15.000Z</time>
      </trkpt>
      <trkpt lat="45.21271" lon="-0.58362">
        <ele>57.25</ele>
        <time>2021-05-24T09:57:19.000Z</time>
      </trkpt>
      <trkpt lat="45.2128" lon="-0.58355">
        <ele>57.28</ele>
        <time>2021-05-24T09:57:45.000Z</time>
      </trkpt>
      <trkpt lat="45.21289" lon="-0.58351">
        <ele>57.95</ele>
        <time>2021-05-24T09:57:49.000Z</time>
      </trkpt>
      <trkpt lat="45.21298" lon="-0.58343">
        <ele>51.49</ele>
        <time>2021-05-24T09:57:55.000Z</time>
      </trkpt>
      <trkpt lat="45.21308" lon="-0.58333">
        <ele>45.21</ele>
        <time>2021-05-24T09:57:59.000Z</time>
      </trkpt>
      <trkpt lat="45.21319" lon="-0.58322">
        <ele>43.1</ele>
        <time>2021-05-24T09:58:02.000Z</time>
      </trkpt>
      <trkpt lat="45.21327" lon="-0.58316">
        <ele>42.49</ele>
        <time>2021-05-24T09:58:04.000Z</time>
      </trkpt>
      <trkpt lat="45.21336" lon="-0.58308">
        <ele>42.25</ele>
        <time>2021-05-24T09:58:07.000Z</time>
      </trkpt>
      <trkpt lat="45.21352" lon="-0.58304">
        <ele>44.44</ele>
        <time>2021-05-24T09:58:09.000Z</time>
      </trkpt>
      <trkpt lat="45.21368" lon="-0.58298">
        <ele>47.24</ele>
        <time>2021-05-24T09:58:11.000Z</time>
      </trkpt>
      <trkpt lat="45.21382" lon="-0.58288">
        <ele>50.33</ele>
        <time>2021-05-24T09:58:13.000Z</time>
      </trkpt>
      <trkpt lat="45.21395" lon="-0.58282">
        <ele>52.09</ele>
        <time>2021-05-24T09:58:15.000Z</time>
      </trkpt>
      <trkpt lat="45.21404" lon="-0.58277">
        <ele>50.49</ele>
        <time>2021-05-24T09:58:17.000Z</time>
      </trkpt>
      <trkpt lat="45.21412" lon="-0.58272">
        <ele>50.79</ele>
        <time>2021-05-24T09:58:20.000Z</time>
      </trkpt>
      <trkpt lat="45.21421" lon="-0.5827">
        <ele>52.82</ele>
        <time>2021-05-24T09:58:22.000Z</time>
      </trkpt>
      <trkpt lat="45.21433" lon="-0.58265">
        <ele>53.81</ele>
        <time>2021-05-24T09:58:24.000Z</time>
      </trkpt>
      <trkpt lat="45.21444" lon="-0.58259">
        <ele>55.15</ele>
        <time>2021-05-24T09:58:26.000Z</time>
      </trkpt>
      <trkpt lat="45.21455" lon="-0.58254">
        <ele>56.39</ele>
        <time>2021-05-24T09:58:28.000Z</time>
      </trkpt>
      <trkpt lat="45.21467" lon="-0.58248">
        <ele>58.05</ele>
        <time>2021-05-24T09:58:31.000Z</time>
      </trkpt>
      <trkpt lat="45.21477" lon="-0.58243">
        <ele>60.77</ele>
        <time>2021-05-24T09:58:35.000Z</time>
      </trkpt>
      <trkpt lat="45.21487" lon="-0.58238">
        <ele>60.99</ele>
        <time>2021-05-24T09:58:40.000Z</time>
      </trkpt>
      <trkpt lat="45.21496" lon="-0.58233">
        <ele>60.43</ele>
        <time>2021-05-24T09:58:43.000Z</time>
      </trkpt>
      <trkpt lat="45.21509" lon="-0.58229">
        <ele>62.13</ele>
        <time>2021-05-24T09:58:46.000Z</time>
      </trkpt>
      <trkpt lat="45.21519" lon="-0.58225">
        <ele>63.49</ele>
        <time>2021-05-24T09:58:48.000Z</time>
      </trkpt>
      <trkpt lat="45.2153" lon="-0.5822">
        <ele>63.76</ele>
        <time>2021-05-24T09:58:50.000Z</time>
      </trkpt>
      <trkpt lat="45.21542" lon="-0.58215">
        <ele>63.84</ele>
        <time>2021-05-24T09:58:53.000Z</time>
      </trkpt>
      <trkpt lat="45.21553" lon="-0.58205">
        <ele>67.98</ele>
        <time>2021-05-24T09:58:55.000Z</time>
      </trkpt>
      <trkpt lat="45.21565" lon="-0.582">
        <ele>69.93</ele>
        <time>2021-05-24T09:58:57.000Z</time>
      </trkpt>
      <trkpt lat="45.21575" lon="-0.58193">
        <ele>71.56</ele>
        <time>2021-05-24T09:58:59.000Z</time>
      </trkpt>
      <trkpt lat="45.21587" lon="-0.58188">
        <ele>72.71</ele>
        <time>2021-05-24T09:59:01.000Z</time>
      </trkpt>
      <trkpt lat="45.21595" lon="-0.58183">
        <ele>72.61</ele>
        <time>2021-05-24T09:59:03.000Z</time>
      </trkpt>
      <trkpt lat="45.21609" lon="-0.58178">
        <ele>72.78</ele>
        <time>2021-05-24T09:59:06.000Z</time>
      </trkpt>
      <trkpt lat="45.21619" lon="-0.58173">
        <ele>72.54</ele>
        <time>2021-05-24T09:59:08.000Z</time>
      </trkpt>
      <trkpt lat="45.2163" lon="-0.58168">
        <ele>74.05</ele>
        <time>2021-05-24T09:59:10.000Z</time>
      </trkpt>
      <trkpt lat="45.21641" lon="-0.58163">
        <ele>72.38</ele>
        <time>2021-05-24T09:59:12.000Z</time>
      </trkpt>
      <trkpt lat="45.21651" lon="-0.58158">
        <ele>73.9</ele>
        <time>2021-05-24T09:59:14.000Z</time>
      </trkpt>
      <trkpt lat="45.21664" lon="-0.58151">
        <ele>75.89</ele>
        <time>2021-05-24T09:59:16.000Z</time>
      </trkpt>
      <trkpt lat="45.21673" lon="-0.58143">
        <ele>72.62</ele>
        <time>2021-05-24T09:59:19.000Z</time>
      </trkpt>
      <trkpt lat="45.21681" lon="-0.58137">
        <ele>71.88</ele>
        <time>2021-05-24T09:59:21.000Z</time>
      </trkpt>
      <trkpt lat="45.2169" lon="-0.58133">
        <ele>71.18</ele>
        <time>2021-05-24T09:59:23.000Z</time>
      </trkpt>
      <trkpt lat="45.21699" lon="-0.58128">
        <ele>68.3</ele>
        <time>2021-05-24T09:59:25.000Z</time>
      </trkpt>
      <trkpt lat="45.21709" lon="-0.58125">
        <ele>66.03</ele>
        <time>2021-05-24T09:59:28.000Z</time>
      </trkpt>
      <trkpt lat="45.2172" lon="-0.58118">
        <ele>64.75</ele>
        <time>2021-05-24T09:59:31.000Z</time>
      </trkpt>
      <trkpt lat="45.21735" lon="-0.58109">
        <ele>66.35</ele>
        <time>2021-05-24T09:59:33.000Z</time>
      </trkpt>
      <trkpt lat="45.21743" lon="-0.58102">
        <ele>65.95</ele>
        <time>2021-05-24T09:59:35.000Z</time>
      </trkpt>
      <trkpt lat="45.21756" lon="-0.58093">
        <ele>64.68</ele>
        <time>2021-05-24T09:59:37.000Z</time>
      </trkpt>
      <trkpt lat="45.21768" lon="-0.58089">
        <ele>63.25</ele>
        <time>2021-05-24T09:59:39.000Z</time>
      </trkpt>
      <trkpt lat="45.2178" lon="-0.58083">
        <ele>63.42</ele>
        <time>2021-05-24T09:59:41.000Z</time>
      </trkpt>
      <trkpt lat="45.21791" lon="-0.58077">
        <ele>63.33</ele>
        <time>2021-05-24T09:59:43.000Z</time>
      </trkpt>
      <trkpt lat="45.21802" lon="-0.58071">
        <ele>63.19</ele>
        <time>2021-05-24T09:59:45.000Z</time>
      </trkpt>
      <trkpt lat="45.21813" lon="-0.58066">
        <ele>63.31</ele>
        <time>2021-05-24T09:59:47.000Z</time>
      </trkpt>
      <trkpt lat="45.21825" lon="-0.5806">
        <ele>63.88</ele>
        <time>2021-05-24T09:59:49.000Z</time>
      </trkpt>
      <trkpt lat="45.21836" lon="-0.58054">
        <ele>64.45</ele>
        <time>2021-05-24T09:59:51.000Z</time>
      </trkpt>
      <trkpt lat="45.21847" lon="-0.58047">
        <ele>64.16</ele>
        <time>2021-05-24T09:59:53.000Z</time>
      </trkpt>
      <trkpt lat="45.21858" lon="-0.58041">
        <ele>64.12</ele>
        <time>2021-05-24T09:59:55.000Z</time>
      </trkpt>
      <trkpt lat="45.21869" lon="-0.58036">
        <ele>64.23</ele>
        <time>2021-05-24T09:59:57.000Z</time>
      </trkpt>
      <trkpt lat="45.21881" lon="-0.58029">
        <ele>63.85</ele>
        <time>2021-05-24T09:59:59.000Z</time>
      </trkpt>
      <trkpt lat="45.21892" lon="-0.58023">
        <ele>63.51</ele>
        <time>2021-05-24T10:00:01.000Z</time>
      </trkpt>
      <trkpt lat="45.21899" lon="-0.58015">
        <ele>60.94</ele>
        <time>2021-05-24T10:00:03.000Z</time>
      </trkpt>
      <trkpt lat="45.21909" lon="-0.58008">
        <ele>59.76</ele>
        <time>2021-05-24T10:00:05.000Z</time>
      </trkpt>
      <trkpt lat="45.21919" lon="-0.58002">
        <ele>58.98</ele>
        <time>2021-05-24T10:00:07.000Z</time>
      </trkpt>
      <trkpt lat="45.21928" lon="-0.57997">
        <ele>59.14</ele>
        <time>2021-05-24T10:00:09.000Z</time>
      </trkpt>
      <trkpt lat="45.21938" lon="-0.57992">
        <ele>59.2</ele>
        <time>2021-05-24T10:00:11.000Z</time>
      </trkpt>
      <trkpt lat="45.2195" lon="-0.57986">
        <ele>56.94</ele>
        <time>2021-05-24T10:00:14.000Z</time>
      </trkpt>
      <trkpt lat="45.21959" lon="-0.57982">
        <ele>58.47</ele>
        <time>2021-05-24T10:00:17.000Z</time>
      </trkpt>
      <trkpt lat="45.21968" lon="-0.57977">
        <ele>57.25</ele>
        <time>2021-05-24T10:00:27.000Z</time>
      </trkpt>
      <trkpt lat="45.21977" lon="-0.57972">
        <ele>56.64</ele>
        <time>2021-05-24T10:00:47.000Z</time>
      </trkpt>
      <trkpt lat="45.21985" lon="-0.57965">
        <ele>56.56</ele>
        <time>2021-05-24T10:00:53.000Z</time>
      </trkpt>
      <trkpt lat="45.21995" lon="-0.57961">
        <ele>56.54</ele>
        <time>2021-05-24T10:01:00.000Z</time>
      </trkpt>
      <trkpt lat="45.22004" lon="-0.57956">
        <ele>56.83</ele>
        <time>2021-05-24T10:01:07.000Z</time>
      </trkpt>
      <trkpt lat="45.22012" lon="-0.5795">
        <ele>56.59</ele>
        <time>2021-05-24T10:01:13.000Z</time>
      </trkpt>
      <trkpt lat="45.22024" lon="-0.57944">
        <ele>56.57</ele>
        <time>2021-05-24T10:01:41.000Z</time>
      </trkpt>
      <trkpt lat="45.22033" lon="-0.57939">
        <ele>56.48</ele>
        <time>2021-05-24T10:01:44.000Z</time>
      </trkpt>
      <trkpt lat="45.22043" lon="-0.57934">
        <ele>57.84</ele>
        <time>2021-05-24T10:01:47.000Z</time>
      </trkpt>
      <trkpt lat="45.22055" lon="-0.57927">
        <ele>57.87</ele>
        <time>2021-05-24T10:01:50.000Z</time>
      </trkpt>
      <trkpt lat="45.22066" lon="-0.57922">
        <ele>58.2</ele>
        <time>2021-05-24T10:01:53.000Z</time>
      </trkpt>
      <trkpt lat="45.22076" lon="-0.57916">
        <ele>58.05</ele>
        <time>2021-05-24T10:01:56.000Z</time>
      </trkpt>
      <trkpt lat="45.22087" lon="-0.5791">
        <ele>58.39</ele>
        <time>2021-05-24T10:01:59.000Z</time>
      </trkpt>
      <trkpt lat="45.22099" lon="-0.57903">
        <ele>58.23</ele>
        <time>2021-05-24T10:02:02.000Z</time>
      </trkpt>
      <trkpt lat="45.2211" lon="-0.57896">
        <ele>58.66</ele>
        <time>2021-05-24T10:02:05.000Z</time>
      </trkpt>
      <trkpt lat="45.2212" lon="-0.5789">
        <ele>58.5</ele>
        <time>2021-05-24T10:02:08.000Z</time>
      </trkpt>
      <trkpt lat="45.22129" lon="-0.57885">
        <ele>58</ele>
        <time>2021-05-24T10:02:12.000Z</time>
      </trkpt>
      <trkpt lat="45.22138" lon="-0.5788">
        <ele>57.76</ele>
        <time>2021-05-24T10:02:19.000Z</time>
      </trkpt>
      <trkpt lat="45.22148" lon="-0.57875">
        <ele>58.65</ele>
        <time>2021-05-24T10:02:22.000Z</time>
      </trkpt>
      <trkpt lat="45.22157" lon="-0.5787">
        <ele>59.28</ele>
        <time>2021-05-24T10:02:24.000Z</time>
      </trkpt>
      <trkpt lat="45.2217" lon="-0.57863">
        <ele>58.22</ele>
        <time>2021-05-24T10:02:27.000Z</time>
      </trkpt>
      <trkpt lat="45.22179" lon="-0.57858">
        <ele>58.38</ele>
        <time>2021-05-24T10:02:29.000Z</time>
      </trkpt>
      <trkpt lat="45.22188" lon="-0.57854">
        <ele>58.02</ele>
        <time>2021-05-24T10:02:31.000Z</time>
      </trkpt>
      <trkpt lat="45.22179" lon="-0.5786">
        <ele>56.38</ele>
        <time>2021-05-24T10:02:45.000Z</time>
      </trkpt>
      <trkpt lat="45.22188" lon="-0.57854">
        <ele>54.9</ele>
        <time>2021-05-24T10:03:06.000Z</time>
      </trkpt>
      <trkpt lat="45.22197" lon="-0.57848">
        <ele>53.62</ele>
        <time>2021-05-24T10:03:12.000Z</time>
      </trkpt>
      <trkpt lat="45.22208" lon="-0.57842">
        <ele>52.01</ele>
        <time>2021-05-24T10:03:16.000Z</time>
      </trkpt>
      <trkpt lat="45.22217" lon="-0.57837">
        <ele>53.89</ele>
        <time>2021-05-24T10:03:19.000Z</time>
      </trkpt>
      <trkpt lat="45.22229" lon="-0.57833">
        <ele>55.08</ele>
        <time>2021-05-24T10:03:22.000Z</time>
      </trkpt>
      <trkpt lat="45.22238" lon="-0.57828">
        <ele>55.28</ele>
        <time>2021-05-24T10:03:24.000Z</time>
      </trkpt>
      <trkpt lat="45.22251" lon="-0.57823">
        <ele>56.25</ele>
        <time>2021-05-24T10:03:27.000Z</time>
      </trkpt>
      <trkpt lat="45.2226" lon="-0.57816">
        <ele>56.78</ele>
        <time>2021-05-24T10:03:30.000Z</time>
      </trkpt>
      <trkpt lat="45.22268" lon="-0.57811">
        <ele>58.71</ele>
        <time>2021-05-24T10:03:32.000Z</time>
      </trkpt>
      <trkpt lat="45.22278" lon="-0.57804">
        <ele>56.91</ele>
        <time>2021-05-24T10:03:34.000Z</time>
      </trkpt>
      <trkpt lat="45.22289" lon="-0.57797">
        <ele>59.65</ele>
        <time>2021-05-24T10:03:37.000Z</time>
      </trkpt>
      <trkpt lat="45.223" lon="-0.5779">
        <ele>59.45</ele>
        <time>2021-05-24T10:03:41.000Z</time>
      </trkpt>
      <trkpt lat="45.22313" lon="-0.57784">
        <ele>57.86</ele>
        <time>2021-05-24T10:03:44.000Z</time>
      </trkpt>
      <trkpt lat="45.22323" lon="-0.57778">
        <ele>56.11</ele>
        <time>2021-05-24T10:03:48.000Z</time>
      </trkpt>
      <trkpt lat="45.22333" lon="-0.57771">
        <ele>56.82</ele>
        <time>2021-05-24T10:03:53.000Z</time>
      </trkpt>
      <trkpt lat="45.22343" lon="-0.57765">
        <ele>56.93</ele>
        <time>2021-05-24T10:03:56.000Z</time>
      </trkpt>
      <trkpt lat="45.22353" lon="-0.57761">
        <ele>57.55</ele>
        <time>2021-05-24T10:04:00.000Z</time>
      </trkpt>
      <trkpt lat="45.22342" lon="-0.57764">
        <ele>54.7</ele>
        <time>2021-05-24T10:04:13.000Z</time>
      </trkpt>
      <trkpt lat="45.22331" lon="-0.57771">
        <ele>55.17</ele>
        <time>2021-05-24T10:04:16.000Z</time>
      </trkpt>
      <trkpt lat="45.22343" lon="-0.57765">
        <ele>56.99</ele>
        <time>2021-05-24T10:04:36.000Z</time>
      </trkpt>
      <trkpt lat="45.22354" lon="-0.57757">
        <ele>57.29</ele>
        <time>2021-05-24T10:04:39.000Z</time>
      </trkpt>
      <trkpt lat="45.22364" lon="-0.57749">
        <ele>57.29</ele>
        <time>2021-05-24T10:04:42.000Z</time>
      </trkpt>
      <trkpt lat="45.22372" lon="-0.57739">
        <ele>56.97</ele>
        <time>2021-05-24T10:04:45.000Z</time>
      </trkpt>
      <trkpt lat="45.22381" lon="-0.57731">
        <ele>57.13</ele>
        <time>2021-05-24T10:04:48.000Z</time>
      </trkpt>
      <trkpt lat="45.22389" lon="-0.57722">
        <ele>57.34</ele>
        <time>2021-05-24T10:04:51.000Z</time>
      </trkpt>
      <trkpt lat="45.22397" lon="-0.57714">
        <ele>57.36</ele>
        <time>2021-05-24T10:04:54.000Z</time>
      </trkpt>
      <trkpt lat="45.22404" lon="-0.57704">
        <ele>55.8</ele>
        <time>2021-05-24T10:04:57.000Z</time>
      </trkpt>
      <trkpt lat="45.22412" lon="-0.57693">
        <ele>57.04</ele>
        <time>2021-05-24T10:05:00.000Z</time>
      </trkpt>
      <trkpt lat="45.22422" lon="-0.57682">
        <ele>57.34</ele>
        <time>2021-05-24T10:05:03.000Z</time>
      </trkpt>
      <trkpt lat="45.22431" lon="-0.57675">
        <ele>56.9</ele>
        <time>2021-05-24T10:05:05.000Z</time>
      </trkpt>
      <trkpt lat="45.22441" lon="-0.57664">
        <ele>56.36</ele>
        <time>2021-05-24T10:05:08.000Z</time>
      </trkpt>
      <trkpt lat="45.22448" lon="-0.57656">
        <ele>57.73</ele>
        <time>2021-05-24T10:05:10.000Z</time>
      </trkpt>
      <trkpt lat="45.22456" lon="-0.57646">
        <ele>57.15</ele>
        <time>2021-05-24T10:05:12.000Z</time>
      </trkpt>
      <trkpt lat="45.22467" lon="-0.57634">
        <ele>57.7</ele>
        <time>2021-05-24T10:05:15.000Z</time>
      </trkpt>
      <trkpt lat="45.22474" lon="-0.57625">
        <ele>57.81</ele>
        <time>2021-05-24T10:05:18.000Z</time>
      </trkpt>
      <trkpt lat="45.22483" lon="-0.57615">
        <ele>56.6</ele>
        <time>2021-05-24T10:05:21.000Z</time>
      </trkpt>
      <trkpt lat="45.22491" lon="-0.57605">
        <ele>55.44</ele>
        <time>2021-05-24T10:05:24.000Z</time>
      </trkpt>
      <trkpt lat="45.22501" lon="-0.57593">
        <ele>55.8</ele>
        <time>2021-05-24T10:05:27.000Z</time>
      </trkpt>
      <trkpt lat="45.22511" lon="-0.57582">
        <ele>55.98</ele>
        <time>2021-05-24T10:05:30.000Z</time>
      </trkpt>
      <trkpt lat="45.22521" lon="-0.57572">
        <ele>55.96</ele>
        <time>2021-05-24T10:05:33.000Z</time>
      </trkpt>
      <trkpt lat="45.2253" lon="-0.57562">
        <ele>55.68</ele>
        <time>2021-05-24T10:05:36.000Z</time>
      </trkpt>
      <trkpt lat="45.22539" lon="-0.57552">
        <ele>56.07</ele>
        <time>2021-05-24T10:05:39.000Z</time>
      </trkpt>
      <trkpt lat="45.22548" lon="-0.57546">
        <ele>57.12</ele>
        <time>2021-05-24T10:05:42.000Z</time>
      </trkpt>
      <trkpt lat="45.22556" lon="-0.57539">
        <ele>56.08</ele>
        <time>2021-05-24T10:06:03.000Z</time>
      </trkpt>
      <trkpt lat="45.22561" lon="-0.57528">
        <ele>53.6</ele>
        <time>2021-05-24T10:06:09.000Z</time>
      </trkpt>
      <trkpt lat="45.22555" lon="-0.57514">
        <ele>55.83</ele>
        <time>2021-05-24T10:06:49.000Z</time>
      </trkpt>
      <trkpt lat="45.2255" lon="-0.575">
        <ele>56.53</ele>
        <time>2021-05-24T10:06:52.000Z</time>
      </trkpt>
      <trkpt lat="45.22546" lon="-0.57487">
        <ele>56.11</ele>
        <time>2021-05-24T10:06:55.000Z</time>
      </trkpt>
      <trkpt lat="45.22542" lon="-0.57471">
        <ele>55.87</ele>
        <time>2021-05-24T10:06:59.000Z</time>
      </trkpt>
      <trkpt lat="45.22539" lon="-0.57458">
        <ele>56.31</ele>
        <time>2021-05-24T10:07:02.000Z</time>
      </trkpt>
      <trkpt lat="45.22536" lon="-0.57446">
        <ele>56.33</ele>
        <time>2021-05-24T10:07:05.000Z</time>
      </trkpt>
      <trkpt lat="45.22534" lon="-0.57433">
        <ele>55.68</ele>
        <time>2021-05-24T10:07:09.000Z</time>
      </trkpt>
      <trkpt lat="45.22533" lon="-0.57418">
        <ele>54.11</ele>
        <time>2021-05-24T10:07:13.000Z</time>
      </trkpt>
      <trkpt lat="45.22532" lon="-0.57405">
        <ele>56.48</ele>
        <time>2021-05-24T10:07:44.000Z</time>
      </trkpt>
      <trkpt lat="45.22525" lon="-0.57396">
        <ele>51.46</ele>
        <time>2021-05-24T10:08:31.000Z</time>
      </trkpt>
      <trkpt lat="45.22503" lon="-0.57341">
        <ele>55.11</ele>
        <time>2021-05-24T10:21:17.000Z</time>
      </trkpt>
    </trkseg>
  </trk>
</gpx>